Data for 03/04/2009

Time Sea-Level Adjusted Pressure Absolute Pressure Temperature Relative Humidity Dew Point Precipitation   
(mb) (inHg) (mb) (inHg) (C) (F) (%) (C) (F) (mm) (in)
00:01 1012 29.88 841 24.83 -0.7 30.8 87 -2.6 27.2 0 0
00:02 1012 29.88 841 24.83 -0.7 30.7 87 -2.7 27.1 0 0
00:03 1012 29.88 841 24.83 -0.9 30.4 86 -3 26.6 0 0
00:04 1012 29.88 841 24.83 -1.1 30 87 -3 26.7 0 0
00:05 1012 29.88 841 24.83 -1.1 30 88 -2.8 27 0 0
00:06 1012 29.88 841 24.83 -1 30.2 88 -2.7 27.1 0 0
00:07 1012 29.88 841 24.83 -0.8 30.5 87 -2.7 27.2 0 0
00:08 1012 29.88 841 24.83 -0.7 30.8 86 -2.7 27.2 0 0
00:09 1012 29.88 841 24.83 -0.6 30.9 86 -2.7 27.2 0 0
00:10 1012 29.88 841 24.83 -0.6 31 86 -2.6 27.2 0 0
00:11 1012 29.88 841 24.83 -0.6 31 86 -2.6 27.3 0 0
00:12 1012 29.88 841 24.83 -0.6 30.9 86 -2.7 27.2 0 0
00:13 1012 29.88 841 24.83 -0.7 30.8 86 -2.7 27.2 0 0
00:14 1012 29.88 841 24.83 -0.8 30.6 86 -2.9 26.9 0 0
00:15 1012 29.88 841 24.83 -1 30.2 86 -3 26.5 0 0
00:16 1012 29.88 841 24.83 -1.1 29.9 87 -3 26.6 0 0
00:17 1012 29.88 841 24.83 -1.2 29.8 88 -3 26.7 0 0
00:18 1012 29.88 841 24.83 -1.2 29.9 88 -2.8 26.9 0 0
00:19 1012 29.88 841 24.83 -1.1 30 88 -2.9 26.8 0 0
00:20 1012 29.88 841 24.83 -1.1 30.1 88 -2.9 26.8 0 0
00:21 1012 29.88 841 24.83 -1 30.3 87 -2.8 27 0 0
00:22 1012 29.88 841 24.83 -1 30.2 88 -2.8 27 0 0
00:23 1012 29.88 841 24.83 -0.9 30.3 87 -2.8 27 0 0
00:24 1012 29.88 841 24.83 -0.9 30.4 87 -2.8 27 0 0
00:25 1012 29.88 841 24.83 -0.8 30.6 87 -2.7 27.1 0 0
00:26 1012 29.88 841 24.83 -0.7 30.7 87 -2.7 27.1 0 0
00:27 1012 29.88 841 24.83 -0.7 30.7 86 -2.7 27.1 0 0
00:28 1012 29.88 841 24.83 -0.8 30.6 86 -2.7 27.1 0 0
00:29 1012 29.88 841 24.83 -0.8 30.6 87 -2.7 27.2 0 0
00:30 1012 29.88 841 24.83 -0.8 30.6 87 -2.7 27.2 0 0
00:31 1012 29.88 841 24.83 -0.8 30.5 87 -2.8 27 0 0
00:32 1012 29.88 841 24.83 -0.9 30.4 87 -2.8 26.9 0 0
00:33 1012 29.88 841 24.83 -0.9 30.3 87 -2.9 26.8 0 0
00:34 1012 29.88 841 24.83 -1 30.1 87 -2.9 26.8 0 0
00:35 1012 29.88 841 24.83 -1 30.2 88 -2.8 27 0 0
00:36 1012 29.88 841 24.83 -1 30.1 88 -2.8 27 0 0
00:37 1012 29.88 841 24.83 -1 30.2 88 -2.8 27 0 0
00:38 1012 29.88 841 24.83 -1 30.2 88 -2.8 27 0 0
00:39 1012 29.88 841 24.83 -1 30.2 87 -2.8 26.9 0 0
00:40 1012 29.88 841 24.83 -1 30.2 87 -2.9 26.9 0 0
00:41 1012 29.88 841 24.83 -1 30.1 88 -2.8 26.9 0 0
00:42 1012 29.88 841 24.83 -1 30.1 88 -2.8 27 0 0
00:43 1012 29.88 841 24.83 -1.1 30 88 -2.8 26.9 0 0
00:44 1012 29.88 841 24.83 -1.1 30 88 -2.9 26.8 0 0
00:45 1012 29.88 841 24.83 -1.2 29.9 88 -2.9 26.8 0 0
00:46 1012 29.88 841 24.83 -1.2 29.8 89 -2.9 26.8 0 0
00:47 1012 29.88 841 24.83 -1.3 29.7 89 -2.9 26.8 0 0
00:48 1012 29.88 841 24.83 -1.3 29.7 89 -2.9 26.8 0 0
00:49 1012 29.88 841 24.83 -1.3 29.7 89 -2.9 26.8 0 0
00:50 1012 29.88 841 24.83 -1.3 29.7 89 -2.8 26.9 0 0
00:51 1012 29.88 841 24.83 -1.2 29.8 89 -2.8 26.9 0 0
00:52 1012 29.88 841 24.83 -1.1 30 88 -2.8 26.9 0 0
00:53 1012 29.88 841 24.83 -1.1 30 88 -2.9 26.8 0 0
00:54 1012 29.88 841 24.83 -1.1 30.1 88 -2.8 26.9 0 0
00:55 1012 29.88 841 24.83 -1.1 30 88 -2.8 26.9 0 0
00:56 1012 29.88 841 24.83 -1.1 30 88 -2.8 26.9 0 0
00:57 1012 29.88 841 24.83 -1.1 30.1 88 -2.8 26.9 0 0
00:58 1012 29.88 841 24.83 -1.1 30 88 -2.8 26.9 0 0
00:59 1012 29.88 841 24.83 -1.1 30 88 -2.8 26.9 0 0
01:00 1012 29.88 841 24.83 -1.1 30 88 -2.8 27 0 0
01:01 1012 29.88 841 24.83 -1.1 30 88 -2.8 26.9 0 0
01:02 1012 29.88 841 24.83 -1.1 30 88 -2.8 27 0 0
01:03 1012 29.88 841 24.83 -1.1 30 89 -2.8 27 0 0
01:04 1012 29.88 841 24.83 -1.1 30 89 -2.7 27.1 0 0
01:05 1012 29.88 841 24.83 -1.1 30.1 89 -2.7 27.1 0 0
01:06 1012 29.88 841 24.83 -1 30.1 89 -2.7 27.2 0 0
01:07 1012 29.88 841 24.83 -1 30.1 89 -2.7 27.1 0 0
01:08 1012 29.88 841 24.83 -1 30.1 89 -2.7 27.1 0 0
01:09 1012 29.88 841 24.83 -1 30.3 88 -2.7 27.2 0 0
01:10 1012 29.88 841 24.83 -0.9 30.3 88 -2.7 27.1 0 0
01:11 1012 29.88 841 24.83 -0.9 30.5 88 -2.7 27.2 0 0
01:12 1012 29.88 841 24.83 -0.8 30.5 87 -2.7 27.2 0 0
01:13 1012 29.88 841 24.83 -0.8 30.6 87 -2.6 27.2 0 0
01:14 1012 29.88 841 24.83 -0.8 30.6 87 -2.7 27.1 0 0
01:15 1012 29.88 841 24.83 -0.9 30.4 86 -3 26.6 0 0
01:16 1012 29.88 841 24.83 -1 30.1 86 -3.1 26.5 0 0
01:17 1012 29.88 841 24.83 -1.1 29.9 87 -3 26.6 0 0
01:18 1012 29.88 841 24.83 -1.2 29.9 88 -3 26.6 0 0
01:19 1012 29.88 841 24.83 -1.2 29.9 88 -2.9 26.8 0 0
01:20 1012 29.88 841 24.83 -1.2 29.8 88 -3 26.6 0 0
01:21 1012 29.88 841 24.83 -1.2 29.8 88 -3 26.5 0 0
01:22 1012 29.88 841 24.83 -1.2 29.8 88 -3 26.6 0 0
01:23 1012 29.88 841 24.83 -1.2 29.8 87 -3 26.5 0 0
01:24 1012 29.88 841 24.83 -1.2 29.8 87 -3.1 26.4 0 0
01:25 1012 29.88 841 24.83 -1.2 29.8 87 -3.2 26.3 0 0
01:26 1012 29.88 841 24.83 -1.3 29.7 86 -3.3 26 0 0
01:27 1012 29.88 841 24.83 -1.3 29.7 86 -3.4 26 0 0
01:28 1012 29.88 841 24.83 -1.3 29.6 86 -3.3 26 0 0
01:29 1012 29.88 842 24.86 -1.4 29.6 87 -3.3 26.1 0 0
01:30 1012 29.88 842 24.86 -1.4 29.5 87 -3.2 26.2 0 0
01:31 1012 29.88 842 24.86 -1.3 29.6 88 -3.1 26.5 0 0
01:32 1012 29.88 842 24.86 -1.3 29.6 88 -3 26.6 0 0
01:33 1012 29.88 842 24.86 -1.2 29.8 88 -3 26.7 0 0
01:34 1012 29.88 842 24.86 -1.1 30 87 -3 26.6 0 0
01:35 1012 29.88 842 24.86 -1.1 30 87 -3 26.5 0 0
01:36 1012 29.88 842 24.86 -1.1 30.1 87 -3 26.6 0 0
01:37 1012 29.88 842 24.86 -1.1 30.1 87 -3 26.7 0 0
01:38 1013 29.91 842 24.86 -1.1 30.1 87 -2.9 26.8 0 0
01:39 1013 29.91 842 24.86 -1 30.2 87 -2.8 26.9 0 0
01:40 1013 29.91 842 24.86 -1 30.3 87 -2.8 26.9 0 0
01:41 1013 29.91 842 24.86 -0.9 30.4 87 -2.8 27 0 0
01:42 1013 29.91 842 24.86 -0.9 30.4 87 -2.8 27 0 0
01:43 1013 29.91 842 24.86 -0.8 30.5 87 -2.8 27 0 0
01:44 1013 29.91 842 24.86 -0.9 30.5 85 -3.1 26.4 0 0
01:45 1013 29.91 842 24.86 -1 30.1 86 -3.1 26.4 0 0
01:46 1013 29.91 842 24.86 -1.1 30 86 -3.2 26.3 0 0
01:47 1013 29.91 842 24.86 -1.2 29.8 87 -3.2 26.3 0 0
01:48 1013 29.91 842 24.86 -1.3 29.7 87 -3.2 26.2 0 0
01:49 1013 29.91 842 24.86 -1.3 29.7 87 -3.2 26.3 0 0
01:50 1013 29.91 842 24.86 -1.3 29.7 87 -3.2 26.2 0 0
01:51 1013 29.91 842 24.86 -1.3 29.6 87 -3.2 26.2 0 0
01:52 1013 29.91 842 24.86 -1.4 29.5 88 -3.1 26.3 0 0
01:53 1013 29.91 842 24.86 -1.4 29.5 89 -3.1 26.5 0 0
01:54 1013 29.91 842 24.86 -1.4 29.4 89 -3 26.5 0 0
01:55 1013 29.91 842 24.86 -1.5 29.4 89 -3.1 26.4 0 0
01:56 1012 29.88 842 24.86 -1.5 29.4 89 -3.1 26.5 0 0
01:57 1012 29.88 842 24.86 -1.4 29.4 89 -3.1 26.4 0 0
01:58 1012 29.88 842 24.86 -1.4 29.5 88 -3.1 26.4 0 0
01:59 1012 29.88 842 24.86 -1.3 29.6 88 -3.1 26.5 0 0
02:00 1012 29.88 842 24.86 -1.2 29.8 88 -3 26.6 0 0
02:01 1012 29.88 842 24.86 -1.2 29.8 88 -3 26.6 0 0
02:02 1012 29.88 842 24.86 -1.2 29.8 88 -3 26.6 0 0
02:03 1012 29.88 842 24.86 -1.2 29.9 88 -3 26.7 0 0
02:04 1012 29.88 842 24.86 -1.2 29.9 88 -2.9 26.7 0 0
02:05 1012 29.88 842 24.86 -1.2 29.8 88 -3 26.6 0 0
02:06 1012 29.88 842 24.86 -1.3 29.7 88 -3 26.5 0 0
02:07 1012 29.88 842 24.86 -1.3 29.7 88 -3 26.5 0 0
02:08 1012 29.88 842 24.86 -1.4 29.4 88 -3.1 26.4 0 0
02:09 1012 29.88 842 24.86 -1.5 29.3 89 -3 26.5 0 0
02:10 1012 29.88 842 24.86 -1.5 29.3 90 -2.9 26.7 0 0
02:11 1013 29.91 842 24.86 -1.6 29.2 90 -2.9 26.7 0 0
02:12 1013 29.91 842 24.86 -1.6 29.2 91 -2.9 26.7 0 0
02:13 1013 29.91 842 24.86 -1.6 29.1 91 -2.9 26.7 0 0
02:14 1013 29.91 842 24.86 -1.6 29.1 91 -2.9 26.8 0 0
02:15 1013 29.91 842 24.86 -1.7 29 91 -2.9 26.7 0 0
02:16 1013 29.91 842 24.86 -1.7 29 91 -2.9 26.8 0 0
02:17 1013 29.91 842 24.86 -1.7 28.9 92 -2.9 26.8 0 0
02:18 1013 29.91 842 24.86 -1.7 28.9 92 -2.8 26.9 0 0
02:19 1013 29.91 842 24.86 -1.7 29 92 -2.8 27 0 0
02:20 1013 29.91 842 24.86 -1.6 29 92 -2.7 27.1 0 0
02:21 1013 29.91 842 24.86 -1.6 29.1 92 -2.7 27.1 0 0
02:22 1013 29.91 842 24.86 -1.6 29.1 93 -2.7 27.2 0 0
02:23 1013 29.91 842 24.86 -1.6 29.1 93 -2.7 27.2 0 0
02:24 1013 29.91 842 24.86 -1.6 29.1 93 -2.7 27.2 0 0
02:25 1013 29.91 842 24.86 -1.6 29.1 93 -2.6 27.3 0 0
02:26 1013 29.91 842 24.86 -1.6 29.1 93 -2.6 27.3 0 0
02:27 1013 29.91 842 24.86 -1.6 29.1 93 -2.6 27.4 0 0
02:28 1013 29.91 842 24.86 -1.6 29.1 93 -2.6 27.4 0 0
02:29 1013 29.91 842 24.86 -1.6 29.1 94 -2.5 27.5 0 0
02:30 1013 29.91 842 24.86 -1.6 29.2 94 -2.5 27.6 0 0
02:31 1013 29.91 842 24.86 -1.6 29.2 93 -2.5 27.5 0 0
02:32 1013 29.91 842 24.86 -1.6 29.2 94 -2.5 27.6 0 0
02:33 1013 29.91 842 24.86 -1.5 29.2 94 -2.5 27.6 0 0
02:34 1013 29.91 842 24.86 -1.5 29.2 94 -2.5 27.6 0 0
02:35 1013 29.91 842 24.86 -1.6 29.2 94 -2.5 27.5 0 0
02:36 1013 29.91 842 24.86 -1.6 29.2 93 -2.5 27.5 0 0
02:37 1013 29.91 842 24.86 -1.6 29.1 93 -2.5 27.4 0 0
02:38 1013 29.91 842 24.86 -1.6 29.1 93 -2.6 27.3 0 0
02:39 1013 29.91 842 24.86 -1.7 29 93 -2.6 27.4 0 0
02:40 1013 29.91 842 24.86 -1.6 29 94 -2.6 27.4 0 0
02:41 1013 29.91 842 24.86 -1.7 29 94 -2.6 27.3 0 0
02:42 1013 29.91 842 24.86 -1.6 29.1 94 -2.5 27.5 0 0
02:43 1013 29.91 842 24.86 -1.6 29 94 -2.5 27.5 0 0
02:44 1013 29.91 842 24.86 -1.7 29 94 -2.5 27.4 0 0
02:45 1013 29.91 842 24.86 -1.6 29 94 -2.5 27.5 0 0
02:46 1013 29.91 842 24.86 -1.6 29.1 94 -2.5 27.5 0 0
02:47 1013 29.91 842 24.86 -1.6 29.1 94 -2.5 27.5 0 0
02:48 1012 29.88 842 24.86 -1.6 29.1 94 -2.5 27.6 0 0
02:49 1012 29.88 842 24.86 -1.6 29.1 94 -2.5 27.5 0 0
02:50 1012 29.88 842 24.86 -1.6 29.1 94 -2.5 27.5 0 0
02:51 1012 29.88 842 24.86 -1.6 29.1 94 -2.5 27.6 0 0
02:52 1012 29.88 842 24.86 -1.6 29.1 94 -2.5 27.5 0 0
02:53 1012 29.88 842 24.86 -1.6 29.1 94 -2.5 27.6 0 0
02:54 1012 29.88 842 24.86 -1.6 29.1 94 -2.4 27.6 0 0
02:55 1012 29.88 842 24.86 -1.6 29.1 94 -2.5 27.6 0 0
02:56 1012 29.88 842 24.86 -1.6 29.1 94 -2.5 27.4 0 0
02:57 1012 29.88 842 24.86 -1.7 28.9 94 -2.6 27.3 0 0
02:58 1012 29.88 842 24.86 -1.8 28.8 93 -2.7 27.1 0 0
02:59 1012 29.88 841 24.83 -1.9 28.6 93 -2.8 26.9 0 0
03:00 1012 29.88 841 24.83 -1.9 28.5 94 -2.8 26.9 0 0
03:01 1012 29.88 841 24.83 -2 28.4 94 -2.9 26.8 0 0
03:02 1012 29.88 841 24.83 -2 28.3 94 -2.9 26.8 0 0
03:03 1012 29.88 842 24.86 -2.1 28.2 94 -2.9 26.7 0 0
03:04 1012 29.88 842 24.86 -2.1 28.1 94 -3 26.6 0 0
03:05 1012 29.88 842 24.86 -2.2 28 94 -3.1 26.5 0 0
03:06 1012 29.88 842 24.86 -2.3 27.9 94 -3.1 26.4 0 0
03:07 1012 29.88 842 24.86 -2.4 27.8 94 -3.2 26.3 0 0
03:08 1012 29.88 842 24.86 -2.4 27.8 95 -3.1 26.4 0 0
03:09 1012 29.88 842 24.86 -2.3 27.9 95 -3 26.5 0 0
03:10 1012 29.88 842 24.86 -2.3 27.8 95 -3.1 26.5 0 0
03:11 1012 29.88 841 24.83 -2.4 27.8 95 -3.1 26.4 0 0
03:12 1012 29.88 841 24.83 -2.3 27.8 95 -3 26.5 0 0
03:13 1012 29.88 841 24.83 -2.3 27.9 95 -3 26.5 0 0
03:14 1012 29.88 841 24.83 -2.4 27.8 94 -3.2 26.3 0 0
03:15 1012 29.88 841 24.83 -2.5 27.6 94 -3.3 26 0 0
03:16 1012 29.88 841 24.83 -2.5 27.4 94 -3.4 25.9 0 0
03:17 1012 29.88 841 24.83 -2.6 27.3 94 -3.5 25.8 0 0
03:18 1012 29.88 841 24.83 -2.6 27.3 94 -3.4 25.9 0 0
03:19 1012 29.88 841 24.83 -2.5 27.5 95 -3.2 26.3 0 0
03:20 1012 29.88 841 24.83 -2.5 27.6 95 -3.2 26.3 0 0
03:21 1012 29.88 841 24.83 -2.5 27.4 94 -3.3 26 0 0
03:22 1012 29.88 841 24.83 -2.6 27.3 94 -3.5 25.7 0 0
03:23 1012 29.88 841 24.83 -2.7 27.2 94 -3.5 25.7 0 0
03:24 1012 29.88 841 24.83 -2.6 27.3 95 -3.3 26 0 0
03:25 1012 29.88 841 24.83 -2.6 27.4 95 -3.3 26 0 0
03:26 1012 29.88 841 24.83 -2.7 27.2 95 -3.4 25.8 0 0
03:27 1012 29.88 841 24.83 -2.7 27.2 95 -3.4 25.8 0 0
03:28 1012 29.88 841 24.83 -2.7 27.2 94 -3.5 25.8 0 0
03:29 1012 29.88 841 24.83 -2.8 27 93 -3.7 25.3 0 0
03:30 1012 29.88 841 24.83 -3 26.7 94 -3.8 25.1 0 0
03:31 1012 29.88 841 24.83 -3 26.7 94 -3.8 25.2 0 0
03:32 1012 29.88 841 24.83 -3 26.6 94 -3.8 25.2 0 0
03:33 1012 29.88 841 24.83 -2.9 26.8 95 -3.7 25.4 0 0
03:34 1012 29.88 841 24.83 -2.8 27 95 -3.4 25.8 0 0
03:35 1012 29.88 841 24.83 -2.8 27 95 -3.5 25.6 0 0
03:36 1012 29.88 841 24.83 -2.8 27 94 -3.6 25.4 0 0
03:37 1012 29.88 841 24.83 -2.8 27 94 -3.6 25.6 0 0
03:38 1012 29.88 841 24.83 -2.7 27.1 94 -3.5 25.6 0 0
03:39 1012 29.88 841 24.83 -2.8 27 93 -3.7 25.3 0 0
03:40 1012 29.88 841 24.83 -2.9 26.8 93 -3.9 25 0 0
03:41 1012 29.88 841 24.83 -2.9 26.7 93 -3.9 25 0 0
03:42 1012 29.88 841 24.83 -3 26.5 93 -4.1 24.7 0 0
03:43 1012 29.88 841 24.83 -3.1 26.4 93 -4 24.7 0 0
03:44 1012 29.88 841 24.83 -3.1 26.3 93 -4.2 24.5 0 0
03:45 1012 29.88 841 24.83 -3.2 26.2 93 -4.1 24.6 0 0
03:46 1012 29.88 841 24.83 -3.2 26.3 94 -4 24.7 0 0
03:47 1012 29.88 841 24.83 -3.1 26.4 94 -3.9 25 0 0
03:48 1012 29.88 841 24.83 -3.1 26.5 94 -3.9 25.1 0 0
03:49 1012 29.88 841 24.83 -3.1 26.5 95 -3.8 25.2 0 0
03:50 1012 29.88 841 24.83 -3 26.6 95 -3.7 25.4 0 0
03:51 1012 29.88 841 24.83 -2.8 27 96 -3.4 25.9 0 0
03:52 1012 29.88 841 24.83 -2.7 27.2 96 -3.3 26.1 0 0
03:53 1012 29.88 841 24.83 -2.6 27.3 95 -3.3 26 0 0
03:54 1012 29.88 841 24.83 -2.7 27.2 94 -3.5 25.8 0 0
03:55 1012 29.88 841 24.83 -2.7 27.1 94 -3.5 25.6 0 0
03:56 1012 29.88 841 24.83 -2.7 27.1 94 -3.5 25.7 0 0
03:57 1012 29.88 841 24.83 -2.7 27.1 95 -3.4 25.8 0 0
03:58 1012 29.88 841 24.83 -2.7 27.2 95 -3.4 25.9 0 0
03:59 1012 29.88 841 24.83 -2.7 27.1 94 -3.5 25.6 0 0
04:00 1012 29.88 841 24.83 -2.8 27 93 -3.7 25.3 0 0
04:01 1012 29.88 841 24.83 -2.9 26.8 93 -3.8 25.2 0 0
04:02 1012 29.88 841 24.83 -2.9 26.8 94 -3.8 25.2 0 0
04:03 1012 29.88 841 24.83 -2.9 26.9 95 -3.6 25.5 0 0
04:04 1012 29.88 841 24.83 -2.8 27 95 -3.4 25.9 0 0
04:05 1012 29.88 841 24.83 -2.7 27.2 95 -3.4 25.9 0 0
04:06 1012 29.88 841 24.83 -2.7 27.2 95 -3.4 25.9 0 0
04:07 1012 29.88 841 24.83 -2.6 27.2 95 -3.4 25.9 0 0
04:08 1012 29.88 841 24.83 -2.6 27.3 95 -3.3 26 0 0
04:09 1012 29.88 841 24.83 -2.6 27.3 95 -3.4 25.9 0 0
04:10 1012 29.88 841 24.83 -2.6 27.3 94 -3.4 25.8 0 0
04:11 1012 29.88 841 24.83 -2.6 27.3 94 -3.4 25.9 0 0
04:12 1012 29.88 841 24.83 -2.6 27.3 94 -3.4 25.9 0 0
04:13 1012 29.88 841 24.83 -2.6 27.2 94 -3.4 25.8 0 0
04:14 1012 29.88 841 24.83 -2.6 27.2 94 -3.5 25.7 0 0
04:15 1012 29.88 841 24.83 -2.8 27 94 -3.6 25.4 0 0
04:16 1012 29.88 841 24.83 -2.8 27 94 -3.7 25.4 0 0
04:17 1012 29.88 841 24.83 -2.8 26.9 94 -3.7 25.4 0 0
04:18 1012 29.88 841 24.83 -2.8 26.9 94 -3.6 25.5 0 0
04:19 1012 29.88 841 24.83 -2.8 27 94 -3.5 25.7 0 0
04:20 1012 29.88 841 24.83 -2.7 27.1 95 -3.5 25.8 0 0
04:21 1012 29.88 841 24.83 -2.7 27.2 94 -3.5 25.7 0 0
04:22 1012 29.88 841 24.83 -2.7 27.2 94 -3.5 25.8 0 0
04:23 1012 29.88 841 24.83 -2.6 27.3 94 -3.4 25.9 0 0
04:24 1012 29.88 841 24.83 -2.5 27.5 94 -3.3 26 0 0
04:25 1012 29.88 841 24.83 -2.5 27.5 94 -3.4 25.9 0 0
04:26 1012 29.88 841 24.83 -2.4 27.6 94 -3.3 26 0 0
04:27 1012 29.88 841 24.83 -2.4 27.7 93 -3.3 26 0 0
04:28 1012 29.88 841 24.83 -2.4 27.8 93 -3.3 26.1 0 0
04:29 1012 29.88 841 24.83 -2.3 27.8 93 -3.3 26 0 0
04:30 1012 29.88 841 24.83 -2.3 27.8 93 -3.3 26 0 0
04:31 1012 29.88 841 24.83 -2.3 27.8 93 -3.3 26 0 0
04:32 1012 29.88 841 24.83 -2.3 27.9 93 -3.3 26 0 0
04:33 1012 29.88 841 24.83 -2.3 27.8 93 -3.4 25.9 0 0
04:34 1012 29.88 841 24.83 -2.4 27.7 93 -3.4 25.9 0 0
04:35 1012 29.88 841 24.83 -2.4 27.8 93 -3.4 25.9 0 0
04:36 1012 29.88 841 24.83 -2.4 27.8 93 -3.4 25.9 0 0
04:37 1012 29.88 841 24.83 -2.4 27.7 93 -3.4 25.8 0 0
04:38 1012 29.88 841 24.83 -2.4 27.7 93 -3.5 25.8 0 0
04:39 1012 29.88 841 24.83 -2.4 27.6 93 -3.5 25.7 0 0
04:40 1012 29.88 841 24.83 -2.5 27.6 93 -3.5 25.7 0 0
04:41 1012 29.88 841 24.83 -2.5 27.5 93 -3.6 25.6 0 0
04:42 1012 29.88 841 24.83 -2.6 27.4 93 -3.5 25.6 0 0
04:43 1012 29.88 841 24.83 -2.6 27.4 93 -3.5 25.7 0 0
04:44 1012 29.88 841 24.83 -2.6 27.4 93 -3.5 25.7 0 0
04:45 1012 29.88 841 24.83 -2.6 27.3 93 -3.6 25.5 0 0
04:46 1012 29.88 841 24.83 -2.6 27.3 93 -3.5 25.6 0 0
04:47 1012 29.88 841 24.83 -2.6 27.3 94 -3.5 25.7 0 0
04:48 1012 29.88 841 24.83 -2.6 27.3 94 -3.5 25.7 0 0
04:49 1012 29.88 841 24.83 -2.6 27.4 94 -3.4 25.9 0 0
04:50 1012 29.88 841 24.83 -2.5 27.4 94 -3.4 26 0 0
04:51 1012 29.88 841 24.83 -2.5 27.5 94 -3.3 26.1 0 0
04:52 1012 29.88 841 24.83 -2.4 27.7 95 -3.2 26.3 0 0
04:53 1012 29.88 841 24.83 -2.4 27.7 94 -3.2 26.3 0 0
04:54 1012 29.88 841 24.83 -2.3 27.8 94 -3.2 26.3 0 0
04:55 1012 29.88 841 24.83 -2.3 27.9 94 -3.1 26.3 0 0
04:56 1012 29.88 841 24.83 -2.3 27.9 94 -3.2 26.3 0 0
04:57 1012 29.88 841 24.83 -2.2 28 94 -3.1 26.4 0 0
04:58 1012 29.88 841 24.83 -2.2 28.1 93 -3.1 26.4 0 0
04:59 1012 29.88 841 24.83 -2.2 28.1 93 -3.1 26.4 0 0
05:00 1012 29.88 841 24.83 -2.1 28.2 93 -3.1 26.4 0 0
05:01 1012 29.88 841 24.83 -2.1 28.2 93 -3.1 26.4 0 0
05:02 1012 29.88 841 24.83 -2 28.3 93 -3.1 26.4 0 0
05:03 1012 29.88 841 24.83 -2 28.4 93 -3 26.6 0 0
05:04 1012 29.88 841 24.83 -2 28.4 93 -3 26.6 0 0
05:05 1012 29.88 841 24.83 -2 28.4 93 -3 26.5 0 0
05:06 1012 29.88 841 24.83 -2 28.4 93 -3 26.6 0 0
05:07 1012 29.88 841 24.83 -2 28.4 93 -3 26.6 0 0
05:08 1012 29.88 841 24.83 -2 28.4 93 -3 26.6 0 0
05:09 1012 29.88 841 24.83 -2 28.4 93 -3 26.6 0 0
05:10 1012 29.88 841 24.83 -2.1 28.3 93 -3 26.6 0 0
05:11 1012 29.88 841 24.83 -2.1 28.2 93 -3 26.5 0 0
05:12 1012 29.88 841 24.83 -2.1 28.3 93 -3 26.6 0 0
05:13 1012 29.88 841 24.83 -2.1 28.2 93 -3 26.5 0 0
05:14 1012 29.88 841 24.83 -2.1 28.3 94 -3 26.6 0 0
05:15 1012 29.88 841 24.83 -2.1 28.3 93 -3 26.6 0 0
05:16 1012 29.88 841 24.83 -2 28.4 93 -3 26.6 0 0
05:17 1012 29.88 841 24.83 -2 28.4 93 -3 26.5 0 0
05:18 1012 29.88 841 24.83 -2 28.4 93 -3 26.6 0 0
05:19 1012 29.88 841 24.83 -2 28.5 92 -3.1 26.5 0 0
05:20 1012 29.88 841 24.83 -2 28.4 92 -3.2 26.3 0 0
05:21 1012 29.88 841 24.83 -2.1 28.2 92 -3.3 26.1 0 0
05:22 1012 29.88 841 24.83 -2.1 28.2 92 -3.2 26.2 0 0
05:23 1012 29.88 841 24.83 -2.1 28.2 92 -3.2 26.2 0 0
05:24 1012 29.88 841 24.83 -2.1 28.3 92 -3.2 26.3 0 0
05:25 1012 29.88 841 24.83 -2 28.4 92 -3.1 26.4 0 0
05:26 1012 29.88 841 24.83 -2 28.3 92 -3.2 26.3 0 0
05:27 1012 29.88 841 24.83 -2 28.3 92 -3.1 26.3 0 0
05:28 1012 29.88 841 24.83 -2 28.4 92 -3.1 26.4 0 0
05:29 1012 29.88 841 24.83 -2 28.4 92 -3.1 26.4 0 0
05:30 1012 29.88 841 24.83 -2 28.4 92 -3.1 26.4 0 0
05:31 1012 29.88 841 24.83 -2 28.4 92 -3.1 26.5 0 0
05:32 1012 29.88 841 24.83 -2 28.4 92 -3.1 26.4 0 0
05:33 1012 29.88 841 24.83 -2 28.5 92 -3.1 26.4 0 0
05:34 1012 29.88 841 24.83 -1.9 28.5 92 -3.1 26.5 0 0
05:35 1012 29.88 841 24.83 -1.9 28.5 92 -3.1 26.4 0 0
05:36 1012 29.88 841 24.83 -1.9 28.5 92 -3.1 26.4 0 0
05:37 1012 29.88 841 24.83 -2 28.5 92 -3.1 26.4 0 0
05:38 1012 29.88 841 24.83 -2 28.4 92 -3.2 26.3 0 0
05:39 1012 29.88 841 24.83 -2 28.4 92 -3.2 26.3 0 0
05:40 1012 29.88 841 24.83 -2 28.4 92 -3.2 26.2 0 0
05:41 1012 29.88 841 24.83 -2 28.4 92 -3.2 26.3 0 0
05:42 1012 29.88 841 24.83 -2 28.5 92 -3.1 26.4 0 0
05:43 1012 29.88 841 24.83 -1.9 28.5 92 -3.1 26.4 0 0
05:44 1012 29.88 841 24.83 -1.9 28.5 92 -3.1 26.4 0 0
05:45 1012 29.88 841 24.83 -1.9 28.6 92 -3.1 26.4 0 0
05:46 1012 29.88 841 24.83 -1.9 28.6 91 -3.1 26.5 0 0
05:47 1012 29.88 841 24.83 -1.9 28.7 91 -3.1 26.4 0 0
05:48 1012 29.88 841 24.83 -1.8 28.7 91 -3.1 26.5 0 0
05:49 1012 29.88 841 24.83 -1.8 28.7 91 -3.1 26.5 0 0
05:50 1012 29.88 841 24.83 -1.8 28.8 91 -3.1 26.5 0 0
05:51 1012 29.88 841 24.83 -1.7 28.9 91 -3.1 26.5 0 0
05:52 1012 29.88 841 24.83 -1.7 28.9 90 -3.1 26.4 0 0
05:53 1012 29.88 841 24.83 -1.7 28.9 90 -3.2 26.3 0 0
05:54 1012 29.88 841 24.83 -1.7 28.9 90 -3.2 26.3 0 0
05:55 1012 29.88 841 24.83 -1.7 28.9 90 -3.2 26.3 0 0
05:56 1012 29.88 841 24.83 -1.7 28.9 90 -3.1 26.3 0 0
05:57 1012 29.88 841 24.83 -1.8 28.8 90 -3.2 26.3 0 0
05:58 1012 29.88 841 24.83 -1.8 28.8 90 -3.1 26.4 0 0
05:59 1012 29.88 841 24.83 -1.7 28.9 90 -3.1 26.4 0 0
06:00 1012 29.88 841 24.83 -1.8 28.8 90 -3.2 26.3 0 0
06:01 1012 29.88 841 24.83 -1.7 28.9 90 -3.2 26.3 0 0
06:02 1012 29.88 841 24.83 -1.7 28.9 90 -3.1 26.4 0 0
06:03 1012 29.88 841 24.83 -1.7 28.9 90 -3.1 26.4 0 0
06:04 1012 29.88 841 24.83 -1.7 29 90 -3.1 26.4 0 0
06:05 1012 29.88 841 24.83 -1.7 29 90 -3.2 26.3 0 0
06:06 1012 29.88 841 24.83 -1.7 29 90 -3.1 26.3 0 0
06:07 1012 29.88 841 24.83 -1.7 28.9 90 -3.2 26.2 0 0
06:08 1011 29.85 841 24.83 -1.8 28.8 90 -3.2 26.2 0 0
06:09 1011 29.85 841 24.83 -1.9 28.6 90 -3.4 25.9 0 0
06:10 1011 29.85 841 24.83 -1.9 28.6 90 -3.3 26.1 0 0
06:11 1011 29.85 841 24.83 -1.9 28.5 91 -3.2 26.2 0 0
06:12 1011 29.85 841 24.83 -1.9 28.5 91 -3.2 26.2 0 0
06:13 1011 29.85 841 24.83 -1.9 28.5 92 -3.1 26.4 0 0
06:14 1011 29.85 841 24.83 -1.9 28.6 92 -3.1 26.5 0 0
06:15 1011 29.85 841 24.83 -1.9 28.6 92 -3.1 26.5 0 0
06:16 1011 29.85 841 24.83 -1.9 28.7 91 -3.1 26.4 0 0
06:17 1011 29.85 841 24.83 -1.8 28.7 91 -3.1 26.4 0 0
06:18 1011 29.85 841 24.83 -1.8 28.8 91 -3.1 26.4 0 0
06:19 1011 29.85 841 24.83 -1.7 28.9 91 -3 26.6 0 0
06:20 1011 29.85 840 24.81 -1.7 28.9 91 -3.1 26.5 0 0
06:21 1011 29.85 840 24.81 -1.7 28.9 90 -3.2 26.3 0 0
06:22 1011 29.85 840 24.81 -1.8 28.8 90 -3.2 26.2 0 0
06:23 1011 29.85 840 24.81 -1.8 28.7 90 -3.3 26 0 0
06:24 1011 29.85 840 24.81 -1.9 28.6 90 -3.3 26 0 0
06:25 1011 29.85 840 24.81 -1.9 28.5 90 -3.3 26 0 0
06:26 1011 29.85 840 24.81 -2 28.5 90 -3.3 26 0 0
06:27 1011 29.85 840 24.81 -1.9 28.5 90 -3.3 26.1 0 0
06:28 1011 29.85 840 24.81 -1.9 28.6 90 -3.4 26 0 0
06:29 1011 29.85 840 24.81 -1.9 28.6 89 -3.4 25.8 0 0
06:30 1011 29.85 840 24.81 -2 28.5 90 -3.4 25.9 0 0
06:31 1011 29.85 840 24.81 -1.9 28.5 90 -3.3 26 0 0
06:32 1011 29.85 840 24.81 -1.9 28.6 90 -3.3 26 0 0
06:33 1011 29.85 840 24.81 -1.9 28.6 90 -3.3 26 0 0
06:34 1011 29.85 840 24.81 -1.9 28.5 90 -3.4 25.9 0 0
06:35 1011 29.85 840 24.81 -2 28.4 90 -3.4 25.8 0 0
06:36 1011 29.85 840 24.81 -2 28.5 90 -3.4 25.9 0 0
06:37 1011 29.85 840 24.81 -2 28.4 90 -3.4 25.9 0 0
06:38 1011 29.85 840 24.81 -2 28.4 91 -3.3 26 0 0
06:39 1011 29.85 840 24.81 -2 28.4 91 -3.2 26.2 0 0
06:40 1011 29.85 840 24.81 -1.9 28.5 91 -3.2 26.3 0 0
06:41 1011 29.85 840 24.81 -1.9 28.6 91 -3.2 26.3 0 0
06:42 1011 29.85 840 24.81 -1.8 28.7 91 -3.2 26.3 0 0
06:43 1011 29.85 840 24.81 -1.8 28.8 90 -3.1 26.3 0 0
06:44 1011 29.85 840 24.81 -1.8 28.8 90 -3.2 26.3 0 0
06:45 1011 29.85 840 24.81 -1.7 28.9 90 -3.2 26.3 0 0
06:46 1011 29.85 840 24.81 -1.7 29 90 -3.1 26.4 0 0
06:47 1011 29.85 840 24.81 -1.7 29 90 -3.1 26.4 0 0
06:48 1011 29.85 840 24.81 -1.7 28.9 90 -3.2 26.3 0 0
06:49 1011 29.85 840 24.81 -1.7 28.9 90 -3.2 26.3 0 0
06:50 1011 29.85 840 24.81 -1.7 28.9 90 -3.2 26.3 0 0
06:51 1011 29.85 840 24.81 -1.8 28.8 90 -3.2 26.3 0 0
06:52 1011 29.85 840 24.81 -1.8 28.8 90 -3.2 26.2 0 0
06:53 1011 29.85 840 24.81 -1.8 28.8 90 -3.2 26.2 0 0
06:54 1011 29.85 840 24.81 -1.8 28.8 90 -3.2 26.2 0 0
06:55 1011 29.85 840 24.81 -1.8 28.8 90 -3.2 26.2 0 0
06:56 1011 29.85 840 24.81 -1.7 28.9 90 -3.2 26.2 0 0
06:57 1011 29.85 840 24.81 -1.7 29 89 -3.2 26.2 0 0
06:58 1011 29.85 840 24.81 -1.7 29 89 -3.2 26.2 0 0
06:59 1011 29.85 840 24.81 -1.6 29.1 89 -3.2 26.3 0 0
07:00 1011 29.85 840 24.81 -1.5 29.2 89 -3.2 26.3 0 0
07:01 1011 29.85 840 24.81 -1.5 29.3 89 -3.1 26.3 0 0
07:02 1011 29.85 840 24.81 -1.5 29.4 88 -3.2 26.3 0 0
07:03 1011 29.85 840 24.81 -1.4 29.4 88 -3.1 26.3 0 0
07:04 1011 29.85 840 24.81 -1.5 29.3 88 -3.2 26.2 0 0
07:05 1011 29.85 840 24.81 -1.5 29.3 88 -3.2 26.2 0 0
07:06 1011 29.85 840 24.81 -1.5 29.2 88 -3.2 26.2 0 0
07:07 1011 29.85 840 24.81 -1.6 29.2 89 -3.2 26.2 0 0
07:08 1011 29.85 840 24.81 -1.6 29.1 89 -3.2 26.2 0 0
07:09 1011 29.85 840 24.81 -1.6 29.1 89 -3.2 26.3 0 0
07:10 1011 29.85 840 24.81 -1.6 29.1 89 -3.1 26.3 0 0
07:11 1011 29.85 840 24.81 -1.7 29 90 -3.1 26.3 0 0
07:12 1011 29.85 840 24.81 -1.6 29 90 -3.1 26.4 0 0
07:13 1011 29.85 840 24.81 -1.6 29 90 -3.1 26.4 0 0
07:14 1011 29.85 840 24.81 -1.6 29.1 90 -3.1 26.4 0 0
07:15 1011 29.85 840 24.81 -1.6 29 90 -3.1 26.4 0 0
07:16 1011 29.85 840 24.81 -1.7 29 90 -3.1 26.3 0 0
07:17 1011 29.85 840 24.81 -1.7 29 90 -3.1 26.4 0 0
07:18 1011 29.85 840 24.81 -1.7 29 90 -3.2 26.3 0 0
07:19 1011 29.85 840 24.81 -1.7 28.9 90 -3.2 26.3 0 0
07:20 1011 29.85 840 24.81 -1.7 29 90 -3.1 26.4 0 0
07:21 1011 29.85 840 24.81 -1.7 29 90 -3.1 26.4 0 0
07:22 1011 29.85 840 24.81 -1.7 29 90 -3.1 26.4 0 0
07:23 1011 29.85 840 24.81 -1.6 29 90 -3.1 26.4 0 0
07:24 1011 29.85 840 24.81 -1.6 29.1 90 -3 26.6 0 0
07:25 1011 29.85 840 24.81 -1.6 29.2 90 -2.9 26.7 0 0
07:26 1011 29.85 840 24.81 -1.6 29.2 90 -2.9 26.7 0 0
07:27 1011 29.85 840 24.81 -1.6 29.2 91 -2.9 26.7 0 0
07:28 1011 29.85 840 24.81 -1.6 29.2 91 -2.9 26.7 0 0
07:29 1011 29.85 840 24.81 -1.5 29.2 90 -2.9 26.8 0 0
07:30 1011 29.85 840 24.81 -1.5 29.2 90 -2.9 26.8 0 0
07:31 1011 29.85 840 24.81 -1.5 29.2 90 -2.9 26.8 0 0
07:32 1011 29.85 840 24.81 -1.5 29.3 91 -2.9 26.9 0 0
07:33 1011 29.85 840 24.81 -1.5 29.4 91 -2.8 27 0 0
07:34 1011 29.85 840 24.81 -1.5 29.4 91 -2.8 27 0 0
07:35 1011 29.85 840 24.81 -1.5 29.3 91 -2.7 27.1 0 0
07:36 1011 29.85 840 24.81 -1.5 29.3 91 -2.7 27.1 0 0
07:37 1011 29.85 840 24.81 -1.5 29.4 91 -2.7 27.2 0 0
07:38 1011 29.85 840 24.81 -1.5 29.3 91 -2.7 27.1 0 0
07:39 1011 29.85 840 24.81 -1.5 29.4 92 -2.7 27.2 0 0
07:40 1011 29.85 840 24.81 -1.5 29.4 92 -2.7 27.2 0 0
07:41 1011 29.85 840 24.81 -1.5 29.4 92 -2.7 27.2 0 0
07:42 1011 29.85 840 24.81 -1.4 29.4 92 -2.6 27.2 0 0
07:43 1011 29.85 840 24.81 -1.4 29.4 92 -2.6 27.3 0 0
07:44 1011 29.85 840 24.81 -1.4 29.5 92 -2.6 27.4 0 0
07:45 1011 29.85 840 24.81 -1.4 29.5 92 -2.6 27.4 0 0
07:46 1011 29.85 840 24.81 -1.3 29.6 92 -2.5 27.5 0 0
07:47 1011 29.85 840 24.81 -1.3 29.6 92 -2.5 27.5 0 0
07:48 1011 29.85 840 24.81 -1.3 29.7 91 -2.5 27.5 0 0
07:49 1011 29.85 840 24.81 -1.3 29.6 91 -2.5 27.4 0 0
07:50 1011 29.85 840 24.81 -1.3 29.7 91 -2.5 27.5 0 0
07:51 1011 29.85 840 24.81 -1.3 29.7 92 -2.5 27.6 0 0
07:52 1011 29.85 840 24.81 -1.3 29.7 91 -2.5 27.5 0 0
07:53 1011 29.85 840 24.81 -1.2 29.8 91 -2.5 27.5 0 0
07:54 1011 29.85 840 24.81 -1.2 29.8 91 -2.5 27.5 0 0
07:55 1011 29.85 840 24.81 -1.2 29.8 91 -2.5 27.4 0 0
07:56 1011 29.85 840 24.81 -1.2 29.8 91 -2.6 27.4 0 0
07:57 1011 29.85 840 24.81 -1.2 29.8 91 -2.5 27.5 0 0
07:58 1011 29.85 840 24.81 -1.2 29.9 91 -2.4 27.6 0 0
07:59 1011 29.85 840 24.81 -1.1 29.9 92 -2.4 27.8 0 0
08:00 1011 29.85 840 24.81 -1.1 30 91 -2.3 27.8 0 0
08:01 1011 29.85 840 24.81 -1.1 30 92 -2.3 27.8 0 0
08:02 1011 29.85 840 24.81 -1.1 30.1 91 -2.3 27.9 0 0
08:03 1011 29.85 840 24.81 -1 30.1 91 -2.3 27.8 0 0
08:04 1011 29.85 840 24.81 -1 30.2 91 -2.3 27.9 0 0
08:05 1011 29.85 840 24.81 -1 30.2 91 -2.2 28 0 0
08:06 1011 29.85 840 24.81 -1 30.3 91 -2.2 28 0 0
08:07 1011 29.85 840 24.81 -0.9 30.3 92 -2.1 28.2 0 0
08:08 1011 29.85 840 24.81 -0.9 30.4 92 -2.1 28.2 0 0
08:09 1011 29.85 840 24.81 -0.8 30.5 91 -2.1 28.3 0 0
08:10 1011 29.85 840 24.81 -0.8 30.5 91 -2.1 28.3 0 0
08:11 1011 29.85 840 24.81 -0.8 30.6 91 -2 28.4 0 0
08:12 1011 29.85 840 24.81 -0.7 30.7 91 -2 28.4 0 0
08:13 1011 29.85 840 24.81 -0.7 30.8 91 -1.9 28.5 0 0
08:14 1011 29.85 840 24.81 -0.6 30.8 91 -1.9 28.6 0 0
08:15 1011 29.85 840 24.81 -0.6 30.9 91 -1.9 28.6 0 0
08:16 1011 29.85 840 24.81 -0.6 30.9 91 -1.9 28.6 0 0
08:17 1011 29.85 840 24.81 -0.6 31 90 -2 28.4 0 0
08:18 1011 29.85 840 24.81 -0.5 31 90 -2 28.4 0 0
08:19 1011 29.85 840 24.81 -0.5 31.1 90 -2 28.5 0 0
08:20 1011 29.85 840 24.81 -0.5 31.1 89 -2.1 28.2 0 0
08:21 1011 29.85 840 24.81 -0.5 31.1 89 -2 28.3 0 0
08:22 1011 29.85 840 24.81 -0.5 31.1 89 -2.1 28.2 0 0
08:23 1011 29.85 840 24.81 -0.5 31 88 -2.2 28 0 0
08:24 1011 29.85 840 24.81 -0.6 31 89 -2.2 28.1 0 0
08:25 1011 29.85 840 24.81 -0.6 30.9 89 -2.2 28 0 0
08:26 1011 29.85 840 24.81 -0.6 30.9 89 -2.3 27.9 0 0
08:27 1011 29.85 840 24.81 -0.6 30.9 89 -2.2 28 0 0
08:28 1011 29.85 840 24.81 -0.6 30.9 89 -2.2 28.1 0 0
08:29 1011 29.85 840 24.81 -0.6 30.8 89 -2.2 28.1 0 0
08:30 1011 29.85 840 24.81 -0.7 30.8 89 -2.2 28 0 0
08:31 1011 29.85 840 24.81 -0.7 30.8 90 -2.2 28.1 0 0
08:32 1011 29.85 840 24.81 -0.7 30.7 90 -2.2 28 0 0
08:33 1011 29.85 840 24.81 -0.7 30.7 90 -2.2 28 0 0
08:34 1011 29.85 840 24.81 -0.8 30.6 90 -2.3 27.9 0 0
08:35 1011 29.85 840 24.81 -0.8 30.6 90 -2.2 28 0 0
08:36 1011 29.85 840 24.81 -0.8 30.5 90 -2.3 27.9 0 0
08:37 1011 29.85 840 24.81 -0.8 30.5 90 -2.2 28 0 0
08:38 1011 29.85 840 24.81 -0.8 30.5 91 -2.2 28 0 0
08:39 1011 29.85 840 24.81 -0.9 30.5 91 -2.2 28 0 0
08:40 1011 29.85 840 24.81 -0.8 30.5 91 -2.1 28.2 0 0
08:41 1011 29.85 840 24.81 -0.9 30.4 91 -2.2 28.1 0 0
08:42 1011 29.85 840 24.81 -0.9 30.4 91 -2.2 28.1 0 0
08:43 1011 29.85 840 24.81 -0.9 30.4 91 -2.1 28.2 0 0
08:44 1011 29.85 840 24.81 -0.9 30.3 91 -2.2 28 0 0
08:45 1011 29.85 840 24.81 -0.9 30.3 91 -2.2 28.1 0 0
08:46 1011 29.85 840 24.81 -0.9 30.3 91 -2.2 28 0 0
08:47 1011 29.85 840 24.81 -0.9 30.3 91 -2.2 28.1 0 0
08:48 1011 29.85 840 24.81 -0.9 30.3 91 -2.2 28 0 0
08:49 1011 29.85 840 24.81 -0.9 30.3 91 -2.3 27.9 0 0
08:50 1011 29.85 840 24.81 -0.9 30.4 91 -2.2 28 0 0
08:51 1011 29.85 840 24.81 -0.9 30.3 91 -2.2 28 0 0
08:52 1011 29.85 840 24.81 -0.9 30.3 91 -2.2 28 0 0
08:53 1011 29.85 840 24.81 -0.9 30.4 91 -2.2 28.1 0 0
08:54 1011 29.85 840 24.81 -0.9 30.4 91 -2.2 28.1 0 0
08:55 1011 29.85 840 24.81 -0.9 30.4 91 -2.2 28.1 0 0
08:56 1011 29.85 840 24.81 -0.9 30.4 91 -2.2 28.1 0 0
08:57 1011 29.85 840 24.81 -0.8 30.5 91 -2.1 28.2 0 0
08:58 1011 29.85 840 24.81 -0.8 30.5 91 -2.1 28.2 0 0
08:59 1011 29.85 840 24.81 -0.8 30.5 91 -2.1 28.2 0 0
09:00 1011 29.85 840 24.81 -0.8 30.5 91 -2.2 28.1 0 0
09:01 1011 29.85 840 24.81 -0.8 30.6 91 -2.1 28.2 0 0
09:02 1011 29.85 840 24.81 -0.8 30.6 91 -2.1 28.2 0 0
09:03 1011 29.85 840 24.81 -0.8 30.6 91 -2.1 28.3 0 0
09:04 1011 29.85 840 24.81 -0.7 30.7 91 -2.1 28.2 0 0
09:05 1011 29.85 840 24.81 -0.7 30.7 90 -2.1 28.2 0 0
09:06 1011 29.85 840 24.81 -0.7 30.7 90 -2.1 28.1 0 0
09:07 1011 29.85 840 24.81 -0.7 30.7 90 -2.1 28.2 0 0
09:08 1011 29.85 840 24.81 -0.7 30.7 90 -2.2 28.1 0 0
09:09 1011 29.85 840 24.81 -0.8 30.6 90 -2.2 28 0 0
09:10 1011 29.85 840 24.81 -0.7 30.7 90 -2.2 28 0 0
09:11 1011 29.85 840 24.81 -0.8 30.6 90 -2.2 28 0 0
09:12 1011 29.85 840 24.81 -0.8 30.6 90 -2.2 28 0 0
09:13 1011 29.85 840 24.81 -0.7 30.7 90 -2.2 28.1 0 0
09:14 1011 29.85 840 24.81 -0.7 30.7 90 -2.2 28.1 0 0
09:15 1011 29.85 840 24.81 -0.8 30.6 90 -2.2 28 0 0
09:16 1011 29.85 840 24.81 -0.7 30.7 90 -2.2 28.1 0 0
09:17 1011 29.85 840 24.81 -0.8 30.6 90 -2.2 28.1 0 0
09:18 1011 29.85 840 24.81 -0.8 30.6 90 -2.2 28.1 0 0
09:19 1011 29.85 840 24.81 -0.8 30.6 90 -2.3 27.9 0 0
09:20 1011 29.85 840 24.81 -0.8 30.6 90 -2.2 28 0 0
09:21 1011 29.85 840 24.81 -0.7 30.7 90 -2.2 28 0 0
09:22 1011 29.85 840 24.81 -0.7 30.7 90 -2.1 28.2 0 0
09:23 1011 29.85 840 24.81 -0.7 30.8 90 -2.1 28.3 0 0
09:24 1011 29.85 840 24.81 -0.6 30.9 90 -2 28.3 0 0
09:25 1011 29.85 840 24.81 -0.5 31.1 90 -1.9 28.6 0 0
09:26 1011 29.85 840 24.81 -0.4 31.2 89 -2 28.5 0 0
09:27 1011 29.85 840 24.81 -0.4 31.4 89 -1.9 28.5 0 0
09:28 1011 29.85 840 24.81 -0.3 31.5 88 -2 28.4 0 0
09:29 1011 29.85 840 24.81 -0.2 31.6 88 -2 28.4 0 0
09:30 1011 29.85 840 24.81 -0.1 31.8 88 -1.9 28.6 0 0
09:31 1011 29.85 840 24.81 -0.1 31.8 88 -1.9 28.5 0 0
09:32 1011 29.85 840 24.81 -0.1 31.8 87 -2 28.5 0 0
09:33 1011 29.85 840 24.81 -0.1 31.8 88 -1.9 28.6 0 0
09:34 1011 29.85 840 24.81 -0.1 31.8 88 -1.9 28.5 0 0
09:35 1011 29.85 840 24.81 -0.2 31.7 88 -2 28.4 0 0
09:36 1010 29.83 840 24.81 -0.2 31.7 88 -1.9 28.5 0 0
09:37 1010 29.83 840 24.81 -0.1 31.8 88 -1.9 28.7 0 0
09:38 1010 29.83 840 24.81 -0.1 31.9 88 -1.8 28.7 0 0
09:39 1010 29.83 840 24.81 -0 32 89 -1.7 28.9 0 0
09:40 1010 29.83 840 24.81 0.1 32.1 88 -1.7 29 0 0
09:41 1010 29.83 840 24.81 0.1 32.1 88 -1.7 28.9 0 0
09:42 1010 29.83 839 24.78 0.1 32.1 88 -1.7 29 0 0
09:43 1010 29.83 839 24.78 0.1 32.2 88 -1.6 29 0 0
09:44 1010 29.83 839 24.78 0.1 32.2 88 -1.7 29 0 0
09:45 1010 29.83 839 24.78 0.1 32.3 88 -1.6 29.2 0 0
09:46 1010 29.83 839 24.78 0.2 32.3 88 -1.5 29.3 0 0
09:47 1010 29.83 839 24.78 0.2 32.4 89 -1.4 29.4 0 0
09:48 1010 29.83 839 24.78 0.2 32.4 87 -1.7 29 0 0
09:49 1010 29.83 839 24.78 0.2 32.3 87 -1.7 29 0 0
09:50 1010 29.83 839 24.78 0.1 32.3 87 -1.8 28.8 0 0
09:51 1010 29.83 839 24.78 0.2 32.3 87 -1.7 28.9 0 0
09:52 1010 29.83 839 24.78 0.1 32.2 88 -1.6 29.1 0 0
09:53 1010 29.83 839 24.78 0.2 32.3 88 -1.6 29.2 0 0
09:54 1010 29.83 839 24.78 0.2 32.3 88 -1.5 29.3 0 0
09:55 1010 29.83 839 24.78 0.2 32.4 89 -1.5 29.4 0 0
09:56 1010 29.83 839 24.78 0.2 32.3 88 -1.6 29.1 0 0
09:57 1010 29.83 839 24.78 0.2 32.3 88 -1.6 29 0 0
09:58 1010 29.83 839 24.78 0.2 32.3 88 -1.6 29.2 0 0
09:59 1010 29.83 839 24.78 0.2 32.3 89 -1.5 29.4 0 0
10:00 1010 29.83 839 24.78 0.2 32.4 88 -1.5 29.3 0 0
10:01 1010 29.83 839 24.78 0.2 32.4 88 -1.5 29.4 0 0
10:02 1010 29.83 839 24.78 0.3 32.5 88 -1.4 29.4 0 0
10:03 1010 29.83 839 24.78 0.3 32.5 88 -1.4 29.4 0 0
10:04 1010 29.83 839 24.78 0.3 32.6 89 -1.3 29.7 0 0
10:05 1010 29.83 839 24.78 0.4 32.7 88 -1.3 29.6 0 0
10:06 1010 29.83 839 24.78 0.4 32.7 88 -1.4 29.5 0 0
10:07 1010 29.83 839 24.78 0.4 32.8 88 -1.3 29.6 0 0
10:08 1010 29.83 839 24.78 0.5 32.9 88 -1.2 29.9 0 0
10:09 1010 29.83 839 24.78 0.6 33 87 -1.3 29.7 0 0
10:10 1010 29.83 839 24.78 0.5 33 87 -1.4 29.6 0 0
10:11 1010 29.83 839 24.78 0.5 33 87 -1.4 29.4 0 0
10:12 1010 29.83 839 24.78 0.6 33 86 -1.5 29.3 0 0
10:13 1010 29.83 839 24.78 0.6 33.1 86 -1.4 29.4 0 0
10:14 1010 29.83 839 24.78 0.7 33.2 87 -1.2 29.9 0 0
10:15 1010 29.83 839 24.78 0.7 33.3 87 -1.2 29.9 0 0
10:16 1010 29.83 839 24.78 0.8 33.4 86 -1.3 29.7 0 0
10:17 1010 29.83 839 24.78 0.8 33.4 87 -1.2 29.8 0 0
10:18 1010 29.83 839 24.78 0.8 33.5 86 -1.3 29.7 0 0
10:19 1010 29.83 839 24.78 0.9 33.6 86 -1.2 29.9 0 0
10:20 1010 29.83 839 24.78 0.9 33.6 85 -1.3 29.7 0 0
10:21 1010 29.83 839 24.78 0.9 33.7 85 -1.3 29.6 0 0
10:22 1010 29.83 839 24.78 1 33.8 84 -1.4 29.5 0 0
10:23 1010 29.83 839 24.78 1 33.9 86 -1 30.2 0 0
10:24 1010 29.83 839 24.78 1.1 34 85 -1.1 30 0 0
10:25 1010 29.83 839 24.78 1.1 34 85 -1.1 30 0 0
10:26 1010 29.83 839 24.78 1.2 34.1 85 -1 30.2 0 0
10:27 1010 29.83 839 24.78 1.2 34.2 85 -1 30.2 0 0
10:28 1010 29.83 839 24.78 1.3 34.4 84 -1.1 30.1 0 0
10:29 1010 29.83 839 24.78 1.4 34.5 86 -0.8 30.6 0 0
10:30 1010 29.83 839 24.78 1.5 34.8 86 -0.6 31 0 0
10:31 1010 29.83 839 24.78 1.7 35.1 85 -0.5 31.1 0 0
10:32 1010 29.83 839 24.78 1.8 35.3 83 -0.8 30.5 0 0
10:33 1010 29.83 839 24.78 1.9 35.4 81 -1.1 30.1 0 0
10:34 1010 29.83 839 24.78 1.8 35.2 78 -1.6 29.2 0 0
10:35 1010 29.83 839 24.78 1.7 35.1 80 -1.3 29.6 0 0
10:36 1010 29.83 839 24.78 1.7 35 82 -1 30.1 0 0
10:37 1010 29.83 839 24.78 1.7 35.1 83 -0.9 30.4 0 0
10:38 1010 29.83 839 24.78 1.7 35 82 -1 30.2 0 0
10:39 1009 29.8 839 24.78 1.7 35 80 -1.4 29.5 0 0
10:40 1009 29.8 839 24.78 1.5 34.8 81 -1.4 29.4 0 0
10:41 1009 29.8 839 24.78 1.5 34.7 80 -1.6 29.1 0 0
10:42 1009 29.8 839 24.78 1.5 34.6 81 -1.4 29.4 0 0
10:43 1009 29.8 839 24.78 1.5 34.6 81 -1.4 29.5 0 0
10:44 1009 29.8 839 24.78 1.5 34.7 82 -1.3 29.7 0 0
10:45 1009 29.8 839 24.78 1.5 34.8 79 -1.6 29.1 0 0
10:46 1009 29.8 839 24.78 1.5 34.8 81 -1.4 29.4 0 0
10:47 1009 29.8 838 24.75 1.6 34.8 81 -1.4 29.5 0 0
10:48 1009 29.8 838 24.75 1.6 34.8 82 -1.2 29.8 0 0
10:49 1009 29.8 838 24.75 1.6 34.9 82 -1.2 29.9 0 0
10:50 1009 29.8 838 24.75 1.7 35 82 -1.1 30 0 0
10:51 1009 29.8 838 24.75 1.7 35.1 81 -1.1 29.9 0 0
10:52 1009 29.8 838 24.75 1.8 35.3 82 -0.9 30.3 0 0
10:53 1009 29.8 838 24.75 1.9 35.5 82 -0.9 30.4 0 0
10:54 1009 29.8 838 24.75 2 35.6 81 -0.9 30.4 0 0
10:55 1009 29.8 838 24.75 2.1 35.7 79 -1.3 29.7 0 0
10:56 1009 29.8 838 24.75 2 35.5 79 -1.3 29.6 0 0
10:57 1009 29.8 838 24.75 2 35.5 79 -1.3 29.7 0 0
10:58 1009 29.8 838 24.75 2 35.7 80 -1.1 30.1 0 0
10:59 1009 29.8 838 24.75 2.1 35.8 81 -0.8 30.6 0 0
11:00 1009 29.8 838 24.75 2.2 35.9 81 -0.8 30.5 0 0
11:01 1009 29.8 838 24.75 2.3 36.1 80 -0.8 30.5 0 0
11:02 1009 29.8 838 24.75 2.3 36.1 79 -1 30.2 0 0
11:03 1009 29.8 838 24.75 2.2 36 81 -0.6 30.9 0 0
11:04 1009 29.8 838 24.75 2.2 35.9 83 -0.5 31.2 0 0
11:05 1009 29.8 838 24.75 2 35.6 84 -0.4 31.3 0 0
11:06 1009 29.8 838 24.75 1.8 35.2 86 -0.4 31.3 0 0
11:07 1009 29.8 838 24.75 1.6 35 86 -0.4 31.3 0 0
11:08 1009 29.8 838 24.75 1.5 34.8 87 -0.3 31.4 0 0
11:09 1009 29.8 838 24.75 1.5 34.7 89 -0.2 31.7 0 0
11:10 1009 29.8 838 24.75 1.5 34.7 89 -0.2 31.6 0 0
11:11 1009 29.8 838 24.75 1.5 34.6 87 -0.4 31.2 0 0
11:12 1009 29.8 838 24.75 1.4 34.5 88 -0.5 31.2 0 0
11:13 1009 29.8 838 24.75 1.3 34.4 88 -0.5 31.2 0 0
11:14 1009 29.8 838 24.75 1.3 34.3 88 -0.5 31.1 0 0
11:15 1009 29.8 838 24.75 1.2 34.2 88 -0.6 31 0 0
11:16 1009 29.8 838 24.75 1.3 34.3 89 -0.4 31.3 0 0
11:17 1009 29.8 838 24.75 1.3 34.3 89 -0.4 31.2 0 0
11:18 1009 29.8 838 24.75 1.3 34.3 88 -0.5 31.2 0 0
11:19 1009 29.8 838 24.75 1.3 34.3 88 -0.5 31.2 0 0
11:20 1009 29.8 838 24.75 1.3 34.3 89 -0.4 31.4 0 0
11:21 1009 29.8 838 24.75 1.3 34.3 89 -0.3 31.4 0 0
11:22 1009 29.8 838 24.75 1.3 34.3 87 -0.6 30.9 0 0
11:23 1009 29.8 838 24.75 1.3 34.3 88 -0.5 31.2 0 0
11:24 1009 29.8 838 24.75 1.3 34.3 89 -0.4 31.3 0 0
11:25 1009 29.8 838 24.75 1.3 34.3 89 -0.3 31.4 0 0
11:26 1009 29.8 838 24.75 1.3 34.4 89 -0.4 31.4 0 0
11:27 1009 29.8 838 24.75 1.3 34.3 89 -0.3 31.4 0 0
11:28 1009 29.8 838 24.75 1.3 34.3 89 -0.3 31.5 0 0
11:29 1009 29.8 838 24.75 1.3 34.3 89 -0.4 31.2 0 0
11:30 1009 29.8 838 24.75 1.2 34.2 89 -0.4 31.3 0 0
11:31 1009 29.8 838 24.75 1.2 34.1 88 -0.5 31 0 0
11:32 1009 29.8 838 24.75 1.1 34.1 90 -0.3 31.4 0 0
11:33 1009 29.8 838 24.75 1.1 34 90 -0.4 31.3 0 0
11:34 1009 29.8 838 24.75 1.1 34 90 -0.3 31.4 0 0
11:35 1009 29.8 838 24.75 1 33.9 90 -0.5 31.1 0 0
11:36 1009 29.8 838 24.75 1 33.8 90 -0.4 31.3 0 0
11:37 1009 29.8 838 24.75 1 33.7 90 -0.5 31.1 0 0
11:38 1009 29.8 838 24.75 0.9 33.7 90 -0.5 31.1 0 0
11:39 1009 29.8 838 24.75 0.9 33.6 90 -0.6 31 0 0
11:40 1009 29.8 838 24.75 0.9 33.5 90 -0.6 30.9 0 0
11:41 1008 29.77 838 24.75 0.8 33.5 89 -0.8 30.5 0 0
11:42 1008 29.77 838 24.75 0.8 33.4 89 -0.8 30.6 0 0
11:43 1009 29.8 838 24.75 0.8 33.4 89 -0.8 30.6 0 0
11:44 1008 29.77 838 24.75 0.8 33.4 87 -1.1 30.1 0 0
11:45 1008 29.77 838 24.75 0.7 33.3 88 -1.1 30.1 0 0
11:46 1008 29.77 838 24.75 0.7 33.3 89 -1 30.3 0 0
11:47 1008 29.77 838 24.75 0.7 33.2 89 -0.9 30.3 0 0
11:48 1009 29.8 838 24.75 0.7 33.2 89 -1 30.2 0 0
11:49 1008 29.77 838 24.75 0.7 33.2 89 -0.9 30.4 0 0
11:50 1008 29.77 838 24.75 0.6 33.1 89 -1 30.2 0 0
11:51 1008 29.77 838 24.75 0.6 33.1 89 -1 30.3 0 0
11:52 1009 29.8 838 24.75 0.6 33 90 -0.9 30.3 0 0
11:53 1009 29.8 838 24.75 0.6 33.1 90 -0.8 30.5 0 0
11:54 1009 29.8 838 24.75 0.6 33 90 -0.9 30.4 0 0
11:55 1009 29.8 838 24.75 0.6 33 90 -0.9 30.4 0 0
11:56 1009 29.8 838 24.75 0.6 33 90 -0.9 30.4 0 0
11:57 1009 29.8 838 24.75 0.5 33 90 -0.9 30.5 0 0
11:58 1009 29.8 838 24.75 0.5 32.9 91 -0.9 30.4 0 0
11:59 1009 29.8 838 24.75 0.5 32.9 91 -0.8 30.5 0 0
12:00 1009 29.8 838 24.75 0.4 32.8 91 -0.9 30.4 0 0
12:01 1009 29.8 838 24.75 0.5 32.8 91 -0.8 30.6 0 0
12:02 1009 29.8 838 24.75 0.4 32.8 92 -0.8 30.6 0 0
12:03 1009 29.8 838 24.75 0.4 32.8 92 -0.8 30.6 0 0
12:04 1009 29.8 838 24.75 0.4 32.7 92 -0.8 30.6 0 0
12:05 1009 29.8 838 24.75 0.4 32.7 92 -0.8 30.5 0 0
12:06 1009 29.8 838 24.75 0.4 32.6 92 -0.8 30.5 0 0
12:07 1009 29.8 838 24.75 0.4 32.7 92 -0.8 30.5 0 0
12:08 1009 29.8 838 24.75 0.4 32.7 92 -0.8 30.5 0 0
12:09 1009 29.8 838 24.75 0.4 32.6 92 -0.9 30.4 0 0
12:10 1009 29.8 838 24.75 0.3 32.6 91 -0.9 30.4 0 0
12:11 1009 29.8 838 24.75 0.4 32.7 91 -0.9 30.4 0 0
12:12 1009 29.8 838 24.75 0.4 32.6 92 -0.9 30.4 0 0
12:13 1009 29.8 838 24.75 0.4 32.7 92 -0.8 30.5 0 0
12:14 1009 29.8 838 24.75 0.4 32.8 91 -0.8 30.5 0 0
12:15 1009 29.8 838 24.75 0.4 32.8 91 -0.8 30.6 0 0
12:16 1009 29.8 838 24.75 0.4 32.8 91 -0.8 30.6 0 0
12:17 1009 29.8 838 24.75 0.5 32.9 92 -0.7 30.7 0 0
12:18 1009 29.8 838 24.75 0.5 32.9 92 -0.7 30.7 0 0
12:19 1009 29.8 838 24.75 0.5 32.9 91 -0.7 30.7 0 0
12:20 1009 29.8 838 24.75 0.5 33 91 -0.7 30.7 0 0
12:21 1009 29.8 838 24.75 0.5 33 91 -0.7 30.7 0 0
12:22 1009 29.8 838 24.75 0.6 33 91 -0.7 30.8 0 0
12:23 1009 29.8 838 24.75 0.6 33 91 -0.7 30.7 0 0
12:24 1009 29.8 838 24.75 0.5 33 91 -0.8 30.6 0 0
12:25 1009 29.8 838 24.75 0.6 33 91 -0.8 30.6 0 0
12:26 1009 29.8 838 24.75 0.5 33 91 -0.7 30.7 0 0
12:27 1009 29.8 838 24.75 0.5 33 91 -0.7 30.7 0 0
12:28 1009 29.8 838 24.75 0.5 33 91 -0.8 30.6 0 0
12:29 1009 29.8 838 24.75 0.5 32.9 91 -0.8 30.5 0 0
12:30 1009 29.8 838 24.75 0.5 32.9 91 -0.8 30.6 0 0
12:31 1009 29.8 838 24.75 0.5 32.9 91 -0.8 30.6 0 0
12:32 1009 29.8 838 24.75 0.4 32.8 91 -0.8 30.5 0 0
12:33 1009 29.8 838 24.75 0.5 32.9 91 -0.8 30.5 0 0
12:34 1009 29.8 838 24.75 0.5 32.8 91 -0.8 30.6 0 0
12:35 1009 29.8 838 24.75 0.5 32.8 91 -0.9 30.5 0 0
12:36 1009 29.8 838 24.75 0.5 32.8 91 -0.8 30.5 0 0
12:37 1009 29.8 838 24.75 0.5 33 91 -0.7 30.7 0 0
12:38 1009 29.8 838 24.75 0.6 33.1 91 -0.7 30.8 0 0
12:39 1009 29.8 838 24.75 0.6 33.1 91 -0.7 30.8 0 0
12:40 1009 29.8 838 24.75 0.7 33.2 91 -0.6 30.9 0 0
12:41 1009 29.8 838 24.75 0.7 33.3 91 -0.6 30.9 0 0
12:42 1008 29.77 838 24.75 0.8 33.4 91 -0.6 30.9 0 0
12:43 1008 29.77 838 24.75 0.8 33.4 91 -0.6 31 0 0
12:44 1008 29.77 838 24.75 0.9 33.6 91 -0.4 31.3 0 0
12:45 1008 29.77 838 24.75 0.9 33.7 90 -0.5 31.2 0 0
12:46 1008 29.77 838 24.75 1 33.8 91 -0.3 31.4 0 0
12:47 1008 29.77 838 24.75 1 33.9 89 -0.5 31 0 0
12:48 1008 29.77 838 24.75 1 33.8 90 -0.5 31.1 0 0
12:49 1008 29.77 838 24.75 1 33.8 89 -0.6 30.9 0 0
12:50 1008 29.77 838 24.75 1 33.8 89 -0.7 30.8 0 0
12:51 1008 29.77 837 24.72 1 33.8 89 -0.6 30.9 0 0
12:52 1008 29.77 838 24.75 1 33.8 90 -0.5 31.1 0 0
12:53 1008 29.77 838 24.75 1 33.8 89 -0.6 31 0 0
12:54 1008 29.77 838 24.75 1.1 33.9 90 -0.5 31.2 0 0
12:55 1008 29.77 838 24.75 1.1 33.9 89 -0.6 30.9 0 0
12:56 1008 29.77 838 24.75 1.1 33.9 88 -0.7 30.8 0 0
12:57 1008 29.77 838 24.75 1.1 33.9 89 -0.5 31 0 0
12:58 1008 29.77 838 24.75 1.1 34 88 -0.6 30.9 0 0
12:59 1008 29.77 837 24.72 1.1 34 89 -0.5 31.2 0 0
13:00 1008 29.77 837 24.72 1.1 34.1 88 -0.6 30.9 0 0
13:01 1008 29.77 837 24.72 1.1 34 89 -0.5 31.1 0 0
13:02 1008 29.77 837 24.72 1.2 34.1 89 -0.4 31.3 0 0
13:03 1008 29.77 837 24.72 1.2 34.1 89 -0.5 31.2 0 0
13:04 1008 29.77 837 24.72 1.2 34.1 90 -0.3 31.5 0 0
13:05 1008 29.77 837 24.72 1.2 34.1 89 -0.5 31.2 0 0
13:06 1008 29.77 837 24.72 1.2 34.1 89 -0.4 31.2 0 0
13:07 1008 29.77 837 24.72 1.1 34.1 90 -0.3 31.5 0 0
13:08 1008 29.77 837 24.72 1.2 34.1 90 -0.4 31.4 0 0
13:09 1008 29.77 837 24.72 1.2 34.1 90 -0.4 31.3 0 0
13:10 1008 29.77 837 24.72 1.2 34.1 89 -0.4 31.2 0 0
13:11 1008 29.77 837 24.72 1.1 34 90 -0.4 31.3 0 0
13:12 1008 29.77 837 24.72 1.2 34.1 90 -0.3 31.5 0 0
13:13 1008 29.77 837 24.72 1.2 34.1 91 -0.2 31.7 0 0
13:14 1008 29.77 837 24.72 1.2 34.2 90 -0.3 31.5 0 0
13:15 1008 29.77 837 24.72 1.2 34.1 89 -0.4 31.2 0 0
13:16 1008 29.77 837 24.72 1.2 34.1 90 -0.3 31.4 0 0
13:17 1008 29.77 837 24.72 1.2 34.2 90 -0.2 31.6 0 0
13:18 1008 29.77 837 24.72 1.2 34.2 91 -0.1 31.8 0 0
13:19 1008 29.77 837 24.72 1.3 34.3 90 -0.2 31.6 0 0
13:20 1008 29.77 837 24.72 1.3 34.3 90 -0.1 31.8 0 0
13:21 1008 29.77 837 24.72 1.3 34.4 90 -0.1 31.8 0 0
13:22 1008 29.77 837 24.72 1.3 34.3 90 -0.1 31.8 0 0
13:23 1008 29.77 837 24.72 1.3 34.3 90 -0.1 31.8 0 0
13:24 1008 29.77 837 24.72 1.3 34.3 90 -0.2 31.6 0 0
13:25 1008 29.77 837 24.72 1.2 34.1 90 -0.3 31.5 0 0
13:26 1008 29.77 837 24.72 1.1 34.1 90 -0.2 31.6 0 0
13:27 1008 29.77 837 24.72 1.1 34 91 -0.3 31.5 0 0
13:28 1008 29.77 837 24.72 1.1 33.9 91 -0.3 31.5 0 0
13:29 1008 29.77 837 24.72 1.1 33.9 91 -0.3 31.4 0 0
13:30 1008 29.77 837 24.72 1 33.8 91 -0.4 31.3 0 0
13:31 1008 29.77 837 24.72 1 33.8 91 -0.4 31.3 0 0
13:32 1008 29.77 837 24.72 0.9 33.7 91 -0.4 31.3 0 0
13:33 1008 29.77 837 24.72 0.9 33.6 91 -0.4 31.2 0 0
13:34 1008 29.77 837 24.72 0.9 33.6 91 -0.5 31.2 0 0
13:35 1008 29.77 837 24.72 0.9 33.5 91 -0.4 31.2 0 0
13:36 1008 29.77 837 24.72 0.8 33.5 91 -0.5 31.2 0 0
13:37 1008 29.77 837 24.72 0.8 33.4 91 -0.5 31.1 0 0
13:38 1008 29.77 837 24.72 0.7 33.2 92 -0.5 31.1 0 0
13:39 1008 29.77 837 24.72 0.7 33.2 92 -0.5 31.1 0 0
13:40 1008 29.77 837 24.72 0.7 33.2 92 -0.5 31.1 0 0
13:41 1008 29.77 837 24.72 0.6 33 92 -0.5 31 0 0
13:42 1008 29.77 837 24.72 0.6 33 92 -0.5 31.1 0 0
13:43 1008 29.77 837 24.72 0.5 32.9 93 -0.6 31 0 0
13:44 1008 29.77 837 24.72 0.5 32.8 93 -0.6 31 0 0
13:45 1008 29.77 837 24.72 0.4 32.8 93 -0.6 30.9 0 0
13:46 1008 29.77 837 24.72 0.4 32.7 93 -0.6 30.9 0 0
13:47 1008 29.77 837 24.72 0.4 32.6 93 -0.6 30.9 0 0
13:48 1008 29.77 837 24.72 0.3 32.6 93 -0.6 30.9 0 0
13:49 1008 29.77 837 24.72 0.3 32.5 94 -0.6 30.8 0 0
13:50 1008 29.77 837 24.72 0.2 32.4 94 -0.7 30.8 0 0
13:51 1008 29.77 837 24.72 0.2 32.3 94 -0.7 30.8 0 0
13:52 1008 29.77 837 24.72 0.1 32.2 94 -0.7 30.8 0 0
13:53 1008 29.77 837 24.72 0.1 32.2 94 -0.7 30.8 0 0
13:54 1008 29.77 837 24.72 0.1 32.1 95 -0.7 30.7 0 0
13:55 1008 29.77 838 24.75 -0 32 95 -0.7 30.7 0 0
13:56 1008 29.77 837 24.72 0 32 95 -0.7 30.7 0 0
13:57 1008 29.77 837 24.72 -0 31.9 95 -0.7 30.7 0 0
13:58 1008 29.77 837 24.72 -0.1 31.9 95 -0.7 30.7 0 0
13:59 1008 29.77 837 24.72 -0.1 31.8 95 -0.7 30.7 0 0
14:00 1008 29.77 837 24.72 -0.1 31.8 96 -0.8 30.6 0 0
14:01 1008 29.77 837 24.72 -0.1 31.9 96 -0.7 30.8 0 0
14:02 1008 29.77 837 24.72 -0.1 31.9 96 -0.7 30.7 0 0
14:03 1008 29.77 837 24.72 -0 31.9 96 -0.6 30.8 0 0
14:04 1008 29.77 837 24.72 0 32 96 -0.6 30.9 0 0
14:05 1008 29.77 837 24.72 0 32 96 -0.6 30.9 0 0
14:06 1008 29.77 837 24.72 0 32 96 -0.6 30.9 0 0
14:07 1008 29.77 837 24.72 0 32 96 -0.6 30.9 0 0
14:08 1008 29.77 837 24.72 0 32.1 96 -0.6 31 0 0
14:09 1008 29.77 837 24.72 -0 32 96 -0.6 30.9 0 0
14:10 1008 29.77 837 24.72 -0 32 96 -0.6 30.9 0 0
14:11 1008 29.77 837 24.72 0 32.1 96 -0.5 31 0 0
14:12 1008 29.77 837 24.72 0.1 32.1 96 -0.5 31.1 0 0
14:13 1008 29.77 837 24.72 0.1 32.2 96 -0.5 31.2 0 0
14:14 1008 29.77 837 24.72 0.1 32.3 96 -0.4 31.3 0 0
14:15 1008 29.77 837 24.72 0.2 32.4 96 -0.3 31.4 0 0
14:16 1008 29.77 837 24.72 0.3 32.6 96 -0.2 31.6 0 0
14:17 1008 29.77 837 24.72 0.4 32.7 96 -0.1 31.8 0 0
14:18 1008 29.77 837 24.72 0.5 32.9 97 0 32 0 0
14:19 1008 29.77 837 24.72 0.7 33.3 96 0.2 32.3 0 0
14:20 1008 29.77 837 24.72 0.8 33.4 96 0.2 32.4 0 0
14:21 1008 29.77 837 24.72 0.9 33.6 95 0.2 32.4 0 0
14:22 1008 29.77 837 24.72 0.9 33.7 95 0.2 32.3 0 0
14:23 1008 29.77 837 24.72 1 33.8 94 0.1 32.2 0 0
14:24 1008 29.77 837 24.72 1 33.8 93 0.1 32.1 0 0
14:25 1008 29.77 837 24.72 1 33.9 93 0 32 0 0
14:26 1008 29.77 837 24.72 1 33.9 92 -0.1 31.9 0 0
14:27 1008 29.77 837 24.72 1 33.8 92 -0.2 31.7 0 0
14:28 1007 29.74 837 24.72 0.9 33.6 92 -0.3 31.5 0 0
14:29 1007 29.74 837 24.72 0.8 33.4 92 -0.3 31.4 0 0
14:30 1007 29.74 837 24.72 0.7 33.3 93 -0.3 31.4 0 0
14:31 1007 29.74 837 24.72 0.7 33.2 93 -0.3 31.4 0 0
14:32 1007 29.74 837 24.72 0.7 33.2 93 -0.3 31.4 0 0
14:33 1007 29.74 837 24.72 0.6 33.1 93 -0.4 31.4 0 0
14:34 1007 29.74 836 24.69 0.6 33.1 93 -0.4 31.4 0 0
14:35 1007 29.74 836 24.69 0.6 33 94 -0.3 31.4 0 0
14:36 1007 29.74 836 24.69 0.5 32.9 94 -0.4 31.3 0 0
14:37 1007 29.74 837 24.72 0.5 32.9 94 -0.4 31.3 0 0
14:38 1007 29.74 837 24.72 0.5 32.8 94 -0.4 31.3 0 0
14:39 1007 29.74 837 24.72 0.5 32.8 94 -0.4 31.3 0 0
14:40 1007 29.74 837 24.72 0.4 32.8 94 -0.4 31.3 0 0
14:41 1007 29.74 837 24.72 0.4 32.8 94 -0.4 31.3 0 0
14:42 1007 29.74 837 24.72 0.4 32.8 95 -0.4 31.4 0 0
14:43 1007 29.74 837 24.72 0.4 32.8 95 -0.3 31.4 0 0
14:44 1008 29.77 837 24.72 0.4 32.7 95 -0.4 31.3 0 0
14:45 1008 29.77 837 24.72 0.4 32.7 95 -0.3 31.4 0 0
14:46 1008 29.77 837 24.72 0.4 32.7 95 -0.4 31.3 0 0
14:47 1008 29.77 837 24.72 0.3 32.6 95 -0.4 31.2 0 0
14:48 1008 29.77 837 24.72 0.2 32.4 95 -0.5 31.1 0 0
14:49 1008 29.77 837 24.72 0.2 32.3 95 -0.5 31 0 0
14:50 1008 29.77 837 24.72 0.1 32.2 95 -0.6 31 0 0
14:51 1008 29.77 837 24.72 0 32.1 95 -0.6 30.9 0 0
14:52 1008 29.77 837 24.72 -0 32 96 -0.6 30.9 0 0
14:53 1008 29.77 837 24.72 -0 31.9 96 -0.6 30.9 0 0
14:54 1008 29.77 837 24.72 -0.1 31.8 96 -0.6 30.8 0 0
14:55 1008 29.77 837 24.72 -0.1 31.8 96 -0.6 30.8 0 0
14:56 1008 29.77 837 24.72 -0.1 31.8 97 -0.6 30.9 0 0
14:57 1008 29.77 837 24.72 -0.1 31.8 97 -0.6 30.9 0 0
14:58 1008 29.77 837 24.72 -0.1 31.8 97 -0.6 30.9 0 0
14:59 1008 29.77 838 24.75 -0.2 31.7 97 -0.6 30.9 0 0
15:00 1008 29.77 838 24.75 -0.1 31.7 97 -0.6 30.9 0 0
15:01 1008 29.77 838 24.75 -0.2 31.7 97 -0.6 30.9 0 0
15:02 1008 29.77 838 24.75 -0.2 31.6 97 -0.6 30.9 0 0
15:03 1009 29.8 838 24.75 -0.2 31.6 97 -0.6 30.8 0 0
15:04 1009 29.8 838 24.75 -0.2 31.6 97 -0.6 30.9 0 0
15:05 1009 29.8 838 24.75 -0.2 31.6 97 -0.6 30.8 0 0
15:06 1009 29.8 838 24.75 -0.2 31.6 97 -0.6 30.9 0 0
15:07 1009 29.8 838 24.75 -0.3 31.5 97 -0.7 30.8 0 0
15:08 1009 29.8 838 24.75 -0.3 31.5 97 -0.7 30.7 0 0
15:09 1009 29.8 838 24.75 -0.3 31.5 97 -0.7 30.8 0 0
15:10 1009 29.8 838 24.75 -0.3 31.5 97 -0.7 30.8 0 0
15:11 1009 29.8 838 24.75 -0.3 31.5 97 -0.7 30.8 0 0
15:12 1009 29.8 838 24.75 -0.3 31.5 97 -0.7 30.8 0 0
15:13 1009 29.8 838 24.75 -0.3 31.4 97 -0.7 30.8 0 0
15:14 1009 29.8 838 24.75 -0.3 31.4 97 -0.7 30.8 0 0
15:15 1009 29.8 838 24.75 -0.3 31.5 97 -0.7 30.8 0 0
15:16 1009 29.8 838 24.75 -0.3 31.5 97 -0.7 30.8 0 0
15:17 1008 29.77 838 24.75 -0.3 31.5 98 -0.6 30.8 0 0
15:18 1008 29.77 838 24.75 -0.3 31.4 98 -0.7 30.8 0 0
15:19 1008 29.77 837 24.72 -0.3 31.4 98 -0.7 30.8 0 0
15:20 1008 29.77 837 24.72 -0.3 31.5 98 -0.6 30.9 0 0
15:21 1008 29.77 838 24.75 -0.3 31.5 98 -0.6 30.9 0 0
15:22 1008 29.77 838 24.75 -0.2 31.6 98 -0.6 31 0 0
15:23 1008 29.77 838 24.75 -0.2 31.6 98 -0.5 31 0 0
15:24 1008 29.77 838 24.75 -0.2 31.7 98 -0.5 31.1 0 0
15:25 1008 29.77 838 24.75 -0.2 31.7 98 -0.5 31.1 0 0
15:26 1008 29.77 838 24.75 -0.1 31.7 98 -0.5 31.2 0 0
15:27 1008 29.77 838 24.75 -0.1 31.8 98 -0.4 31.2 0 0
15:28 1008 29.77 838 24.75 -0 31.9 98 -0.3 31.4 0 0
15:29 1008 29.77 838 24.75 0 32 98 -0.3 31.5 0 0
15:30 1008 29.77 838 24.75 0.1 32.1 98 -0.2 31.6 0 0
15:31 1008 29.77 838 24.75 0.1 32.2 98 -0.2 31.7 0 0
15:32 1008 29.77 838 24.75 0.1 32.1 98 -0.2 31.6 0 0
15:33 1008 29.77 838 24.75 0.1 32.1 98 -0.2 31.6 0 0
15:34 1008 29.77 838 24.75 0.1 32.1 98 -0.3 31.5 0 0
15:35 1008 29.77 838 24.75 0 32 98 -0.3 31.5 0 0
15:36 1008 29.77 838 24.75 0 32.1 98 -0.3 31.5 0 0
15:37 1008 29.77 838 24.75 0.1 32.1 98 -0.3 31.5 0 0
15:38 1008 29.77 838 24.75 0.1 32.1 98 -0.2 31.6 0 0
15:39 1008 29.77 837 24.72 0.1 32.2 98 -0.2 31.6 0 0
15:40 1008 29.77 837 24.72 0.1 32.2 98 -0.2 31.6 0 0
15:41 1008 29.77 837 24.72 0.1 32.3 98 -0.2 31.7 0 0
15:42 1008 29.77 838 24.75 0.2 32.3 98 -0.1 31.7 0 0
15:43 1008 29.77 838 24.75 0.2 32.3 98 -0.1 31.8 0 0
15:44 1008 29.77 838 24.75 0.2 32.4 98 -0.1 31.8 0 0
15:45 1008 29.77 838 24.75 0.2 32.4 98 -0.1 31.9 0 0
15:46 1008 29.77 838 24.75 0.3 32.5 98 -0.1 31.9 0 0
15:47 1008 29.77 838 24.75 0.3 32.6 98 0 32.1 0 0
15:48 1008 29.77 838 24.75 0.4 32.7 98 0.1 32.2 0 0
15:49 1008 29.77 838 24.75 0.5 32.9 98 0.2 32.4 0 0
15:50 1008 29.77 838 24.75 0.5 32.9 98 0.2 32.3 0 0
15:51 1008 29.77 838 24.75 0.5 32.9 98 0.2 32.3 0 0
15:52 1008 29.77 838 24.75 0.5 33 98 0.2 32.3 0 0
15:53 1008 29.77 838 24.75 0.5 33 98 0.2 32.3 0 0
15:54 1008 29.77 838 24.75 0.6 33 97 0.2 32.3 0 0
15:55 1008 29.77 838 24.75 0.6 33 97 0.2 32.3 0 0
15:56 1008 29.77 838 24.75 0.6 33.1 97 0.2 32.3 0 0
15:57 1008 29.77 838 24.75 0.6 33 97 0.2 32.3 0 0
15:58 1008 29.77 838 24.75 0.6 33.1 97 0.2 32.3 0 0
15:59 1008 29.77 838 24.75 0.6 33.1 97 0.2 32.4 0 0
16:00 1008 29.77 838 24.75 0.6 33.1 97 0.2 32.3 0 0
16:01 1008 29.77 838 24.75 0.6 33.1 97 0.1 32.3 0 0
16:02 1008 29.77 837 24.72 0.6 33.1 97 0.2 32.3 0 0
16:03 1008 29.77 837 24.72 0.6 33.1 97 0.2 32.3 0 0
16:04 1008 29.77 837 24.72 0.6 33.2 97 0.2 32.3 0 0
16:05 1008 29.77 837 24.72 0.6 33.1 97 0.1 32.2 0 0
16:06 1008 29.77 837 24.72 0.6 33.1 97 0.1 32.2 0 0
16:07 1008 29.77 837 24.72 0.6 33.1 97 0.1 32.2 0 0
16:08 1008 29.77 837 24.72 0.6 33.1 97 0.1 32.2 0 0
16:09 1008 29.77 837 24.72 0.6 33 97 0.1 32.2 0 0
16:10 1008 29.77 837 24.72 0.5 32.9 97 0 32 0 0
16:11 1008 29.77 837 24.72 0.5 32.9 97 0 32.1 0 0
16:12 1008 29.77 837 24.72 0.5 32.9 97 -0 32 0 0
16:13 1008 29.77 837 24.72 0.4 32.8 97 -0 32 0 0
16:14 1008 29.77 837 24.72 0.4 32.8 97 0 32 0 0
16:15 1008 29.77 837 24.72 0.5 32.9 97 0 32.1 0 0
16:16 1008 29.77 837 24.72 0.5 32.9 97 0 32.1 0 0
16:17 1008 29.77 837 24.72 0.5 32.9 97 0 32 0 0
16:18 1008 29.77 837 24.72 0.5 32.9 97 0.1 32.1 0 0
16:19 1008 29.77 837 24.72 0.5 32.9 97 0 32.1 0 0
16:20 1008 29.77 837 24.72 0.5 32.9 97 0 32 0 0
16:21 1008 29.77 837 24.72 0.5 32.9 97 0 32.1 0 0
16:22 1008 29.77 837 24.72 0.5 32.9 97 0 32.1 0 0
16:23 1008 29.77 837 24.72 0.5 32.9 97 0 32.1 0 0
16:24 1008 29.77 837 24.72 0.5 32.9 97 0 32.1 0 0
16:25 1008 29.77 837 24.72 0.5 32.9 97 0.1 32.2 0 0
16:26 1008 29.77 837 24.72 0.6 33 97 0.1 32.2 0 0
16:27 1008 29.77 837 24.72 0.7 33.2 97 0.3 32.5 0 0
16:28 1008 29.77 837 24.72 0.7 33.3 97 0.3 32.6 0 0
16:29 1008 29.77 837 24.72 0.8 33.4 97 0.4 32.6 0 0
16:30 1008 29.77 837 24.72 0.8 33.5 97 0.4 32.8 0 0
16:31 1008 29.77 837 24.72 0.9 33.6 97 0.5 32.8 0 0
16:32 1008 29.77 837 24.72 0.9 33.6 97 0.5 32.9 0 0
16:33 1008 29.77 837 24.72 1 33.7 97 0.5 32.9 0 0
16:34 1008 29.77 837 24.72 0.9 33.7 97 0.5 32.9 0 0
16:35 1008 29.77 837 24.72 0.9 33.7 97 0.5 32.8 0 0
16:36 1008 29.77 837 24.72 0.9 33.7 97 0.5 32.8 0 0
16:37 1008 29.77 837 24.72 1 33.8 97 0.5 32.9 0 0
16:38 1008 29.77 837 24.72 1 33.7 97 0.5 32.9 0 0
16:39 1008 29.77 837 24.72 1 33.8 97 0.5 32.9 0 0
16:40 1008 29.77 837 24.72 1 33.8 96 0.5 32.9 0 0
16:41 1008 29.77 837 24.72 1 33.8 96 0.5 32.9 0 0
16:42 1008 29.77 837 24.72 0.9 33.7 96 0.4 32.8 0 0
16:43 1008 29.77 837 24.72 0.9 33.7 96 0.4 32.7 0 0
16:44 1008 29.77 837 24.72 0.9 33.6 96 0.3 32.6 0 0
16:45 1008 29.77 837 24.72 0.8 33.5 96 0.3 32.5 0 0
16:46 1008 29.77 837 24.72 0.8 33.4 96 0.2 32.4 0 0
16:47 1008 29.77 837 24.72 0.8 33.4 96 0.2 32.4 0 0
16:48 1008 29.77 837 24.72 0.7 33.3 96 0.2 32.3 0 0
16:49 1008 29.77 837 24.72 0.7 33.2 96 0.1 32.2 0 0
16:50 1008 29.77 837 24.72 0.6 33.1 96 0 32.1 0 0
16:51 1008 29.77 837 24.72 0.6 33.1 96 0 32.1 0 0
16:52 1008 29.77 837 24.72 0.5 33 96 0 32 0 0
16:53 1008 29.77 837 24.72 0.5 33 96 0 32 0 0
16:54 1008 29.77 837 24.72 0.6 33 96 0.1 32.1 0 0
16:55 1008 29.77 837 24.72 0.6 33.1 97 0.1 32.2 0 0
16:56 1008 29.77 837 24.72 0.6 33.1 96 0.1 32.1 0 0
16:57 1008 29.77 837 24.72 0.6 33 96 0 32.1 0 0
16:58 1008 29.77 837 24.72 0.5 32.9 96 -0 31.9 0 0
16:59 1008 29.77 837 24.72 0.5 32.8 96 -0.1 31.9 0 0
17:00 1008 29.77 837 24.72 0.4 32.7 96 -0.1 31.8 0 0
17:01 1008 29.77 837 24.72 0.4 32.7 96 -0.1 31.8 0 0
17:02 1008 29.77 837 24.72 0.4 32.7 96 -0.2 31.7 0 0
17:03 1008 29.77 837 24.72 0.3 32.6 97 -0.1 31.7 0 0
17:04 1008 29.77 837 24.72 0.3 32.5 97 -0.2 31.6 0 0
17:05 1008 29.77 837 24.72 0.3 32.5 97 -0.2 31.7 0 0
17:06 1008 29.77 837 24.72 0.3 32.5 97 -0.2 31.7 0 0
17:07 1008 29.77 837 24.72 0.3 32.5 97 -0.2 31.6 0 0
17:08 1008 29.77 837 24.72 0.2 32.4 97 -0.2 31.6 0 0
17:09 1008 29.77 837 24.72 0.3 32.5 97 -0.2 31.7 0 0
17:10 1008 29.77 837 24.72 0.2 32.4 97 -0.2 31.6 0 0
17:11 1008 29.77 837 24.72 0.2 32.4 97 -0.2 31.6 0 0
17:12 1008 29.77 837 24.72 0.2 32.4 97 -0.2 31.6 0 0
17:13 1008 29.77 837 24.72 0.2 32.4 97 -0.2 31.6 0 0
17:14 1008 29.77 837 24.72 0.2 32.4 97 -0.2 31.6 0 0
17:15 1008 29.77 837 24.72 0.2 32.3 97 -0.2 31.6 0 0
17:16 1008 29.77 837 24.72 0.2 32.3 97 -0.3 31.5 0 0
17:17 1008 29.77 837 24.72 0.1 32.3 97 -0.3 31.5 0 0
17:18 1008 29.77 837 24.72 0.2 32.3 97 -0.3 31.5 0 0
17:19 1008 29.77 837 24.72 0.1 32.3 97 -0.3 31.5 0 0
17:20 1008 29.77 837 24.72 0.1 32.2 97 -0.3 31.5 0 0
17:21 1008 29.77 837 24.72 0.1 32.3 97 -0.3 31.5 0 0
17:22 1008 29.77 837 24.72 0.1 32.3 97 -0.3 31.5 0 0
17:23 1008 29.77 837 24.72 0.1 32.2 97 -0.3 31.5 0 0
17:24 1008 29.77 837 24.72 0.1 32.2 97 -0.3 31.5 0 0
17:25 1008 29.77 837 24.72 0.1 32.2 97 -0.3 31.4 0 0
17:26 1008 29.77 837 24.72 0.1 32.2 97 -0.3 31.4 0 0
17:27 1008 29.77 837 24.72 0.1 32.1 97 -0.3 31.4 0 0
17:28 1008 29.77 837 24.72 0.1 32.1 97 -0.3 31.4 0 0
17:29 1008 29.77 837 24.72 0 32.1 97 -0.4 31.4 0 0
17:30 1008 29.77 837 24.72 0 32 97 -0.4 31.3 0 0
17:31 1008 29.77 837 24.72 -0 31.9 97 -0.4 31.2 0 0
17:32 1008 29.77 837 24.72 -0 32 97 -0.4 31.3 0 0
17:33 1008 29.77 837 24.72 -0 31.9 97 -0.4 31.2 0 0
17:34 1008 29.77 837 24.72 -0 32 97 -0.4 31.3 0 0
17:35 1008 29.77 837 24.72 -0.1 31.9 97 -0.4 31.2 0 0
17:36 1008 29.77 837 24.72 -0 31.9 97 -0.4 31.3 0 0
17:37 1008 29.77 837 24.72 -0.1 31.9 97 -0.4 31.2 0 0
17:38 1008 29.77 837 24.72 -0 32 98 -0.4 31.3 0 0
17:39 1008 29.77 837 24.72 -0 32 97 -0.4 31.3 0 0
17:40 1008 29.77 837 24.72 -0 31.9 97 -0.4 31.3 0 0
17:41 1008 29.77 837 24.72 -0 32 98 -0.4 31.4 0 0
17:42 1008 29.77 837 24.72 0 32 97 -0.4 31.4 0 0
17:43 1008 29.77 837 24.72 -0 32 97 -0.4 31.3 0 0
17:44 1008 29.77 837 24.72 -0.1 31.9 97 -0.4 31.2 0 0
17:45 1008 29.77 837 24.72 -0.1 31.9 97 -0.5 31.2 0 0
17:46 1008 29.77 837 24.72 -0.1 31.8 97 -0.5 31.1 0 0
17:47 1008 29.77 837 24.72 -0.2 31.7 97 -0.6 31 0 0
17:48 1008 29.77 837 24.72 -0.2 31.7 97 -0.5 31 0 0
17:49 1008 29.77 837 24.72 -0.2 31.6 98 -0.6 31 0 0
17:50 1008 29.77 837 24.72 -0.2 31.6 98 -0.6 31 0 0
17:51 1008 29.77 837 24.72 -0.2 31.6 98 -0.6 31 0 0
17:52 1008 29.77 837 24.72 -0.3 31.5 98 -0.6 30.9 0 0
17:53 1008 29.77 837 24.72 -0.3 31.5 98 -0.6 30.9 0 0
17:54 1008 29.77 837 24.72 -0.3 31.5 98 -0.6 30.9 0 0
17:55 1008 29.77 837 24.72 -0.3 31.4 98 -0.6 30.9 0 0
17:56 1008 29.77 837 24.72 -0.4 31.4 98 -0.7 30.8 0 0
17:57 1008 29.77 837 24.72 -0.4 31.3 98 -0.7 30.7 0 0
17:58 1008 29.77 837 24.72 -0.4 31.3 98 -0.7 30.7 0 0
17:59 1008 29.77 837 24.72 -0.4 31.2 98 -0.8 30.6 0 0
18:00 1008 29.77 837 24.72 -0.5 31.2 98 -0.8 30.6 0 0
18:01 1008 29.77 837 24.72 -0.5 31.1 98 -0.8 30.6 0 0
18:02 1008 29.77 837 24.72 -0.5 31.2 98 -0.8 30.6 0 0
18:03 1008 29.77 837 24.72 -0.5 31.1 98 -0.8 30.6 0 0
18:04 1008 29.77 837 24.72 -0.5 31 98 -0.8 30.5 0 0
18:05 1008 29.77 837 24.72 -0.5 31.1 98 -0.8 30.6 0 0
18:06 1008 29.77 837 24.72 -0.6 31 98 -0.8 30.5 0 0
18:07 1008 29.77 837 24.72 -0.6 31 98 -0.8 30.5 0 0
18:08 1008 29.77 837 24.72 -0.6 30.9 98 -0.9 30.4 0 0
18:09 1008 29.77 837 24.72 -0.6 30.9 98 -0.9 30.5 0 0
18:10 1008 29.77 837 24.72 -0.6 30.9 98 -0.9 30.4 0 0
18:11 1008 29.77 837 24.72 -0.6 30.9 98 -0.9 30.4 0 0
18:12 1008 29.77 837 24.72 -0.6 30.8 98 -0.9 30.4 0 0
18:13 1008 29.77 837 24.72 -0.7 30.8 98 -0.9 30.4 0 0
18:14 1008 29.77 837 24.72 -0.7 30.8 98 -0.9 30.3 0 0
18:15 1008 29.77 837 24.72 -0.7 30.8 98 -0.9 30.4 0 0
18:16 1008 29.77 837 24.72 -0.7 30.8 98 -0.9 30.3 0 0
18:17 1008 29.77 837 24.72 -0.7 30.8 98 -0.9 30.4 0 0
18:18 1008 29.77 837 24.72 -0.7 30.8 98 -0.9 30.3 0 0
18:19 1008 29.77 837 24.72 -0.7 30.7 98 -0.9 30.3 0 0
18:20 1008 29.77 838 24.75 -0.7 30.7 98 -1 30.3 0 0
18:21 1008 29.77 838 24.75 -0.7 30.7 98 -1 30.3 0 0
18:22 1008 29.77 838 24.75 -0.7 30.7 98 -0.9 30.3 0 0
18:23 1008 29.77 838 24.75 -0.7 30.7 98 -0.9 30.3 0 0
18:24 1008 29.77 838 24.75 -0.7 30.7 98 -0.9 30.3 0 0
18:25 1008 29.77 838 24.75 -0.7 30.7 99 -0.9 30.4 0 0
18:26 1008 29.77 838 24.75 -0.7 30.7 98 -0.9 30.3 0 0
18:27 1008 29.77 838 24.75 -0.7 30.7 99 -0.9 30.4 0 0
18:28 1008 29.77 838 24.75 -0.7 30.8 99 -0.9 30.4 0 0
18:29 1008 29.77 838 24.75 -0.7 30.8 99 -0.9 30.4 0 0
18:30 1009 29.8 838 24.75 -0.7 30.8 99 -0.9 30.4 0 0
18:31 1009 29.8 838 24.75 -0.7 30.8 99 -0.9 30.5 0 0
18:32 1009 29.8 838 24.75 -0.6 30.9 99 -0.8 30.5 0 0
18:33 1009 29.8 838 24.75 -0.6 30.9 99 -0.8 30.5 0 0
18:34 1009 29.8 838 24.75 -0.6 30.8 99 -0.8 30.5 0 0
18:35 1009 29.8 838 24.75 -0.6 30.9 99 -0.8 30.5 0 0
18:36 1009 29.8 838 24.75 -0.6 30.9 99 -0.8 30.5 0 0
18:37 1009 29.8 838 24.75 -0.6 30.9 99 -0.8 30.6 0 0
18:38 1009 29.8 838 24.75 -0.6 30.9 99 -0.8 30.6 0 0
18:39 1009 29.8 838 24.75 -0.6 30.9 99 -0.8 30.6 0 0
18:40 1009 29.8 838 24.75 -0.6 30.9 99 -0.8 30.6 0 0
18:41 1009 29.8 838 24.75 -0.6 30.9 99 -0.8 30.6 0 0
18:42 1009 29.8 838 24.75 -0.6 30.9 99 -0.8 30.6 0 0
18:43 1009 29.8 838 24.75 -0.6 30.9 99 -0.8 30.6 0 0
18:44 1009 29.8 838 24.75 -0.6 31 99 -0.7 30.7 0 0
18:45 1009 29.8 838 24.75 -0.6 31 99 -0.8 30.6 0 0
18:46 1009 29.8 838 24.75 -0.6 30.9 99 -0.8 30.6 0 0
18:47 1009 29.8 838 24.75 -0.6 31 99 -0.8 30.6 0 0
18:48 1009 29.8 838 24.75 -0.6 31 99 -0.7 30.7 0 0
18:49 1009 29.8 838 24.75 -0.5 31 99 -0.7 30.7 0 0
18:50 1009 29.8 838 24.75 -0.5 31 99 -0.7 30.7 0 0
18:51 1009 29.8 838 24.75 -0.5 31 99 -0.7 30.7 0 0
18:52 1009 29.8 838 24.75 -0.6 31 99 -0.7 30.7 0 0
18:53 1009 29.8 838 24.75 -0.5 31.1 99 -0.7 30.8 0 0
18:54 1009 29.8 838 24.75 -0.6 31 99 -0.7 30.7 0 0
18:55 1009 29.8 838 24.75 -0.5 31 99 -0.7 30.7 0 0
18:56 1009 29.8 838 24.75 -0.5 31.1 99 -0.7 30.7 0 0
18:57 1009 29.8 838 24.75 -0.5 31 99 -0.7 30.7 0 0
18:58 1009 29.8 838 24.75 -0.5 31.1 99 -0.7 30.8 0 0
18:59 1009 29.8 838 24.75 -0.5 31 99 -0.7 30.7 0 0
19:00 1009 29.8 838 24.75 -0.5 31 99 -0.7 30.7 0 0
19:01 1009 29.8 838 24.75 -0.5 31 99 -0.7 30.7 0 0
19:02 1009 29.8 838 24.75 -0.5 31 99 -0.7 30.8 0 0
19:03 1009 29.8 838 24.75 -0.5 31 99 -0.7 30.7 0 0
19:04 1009 29.8 838 24.75 -0.5 31.1 99 -0.7 30.8 0 0
19:05 1009 29.8 838 24.75 -0.6 31 99 -0.7 30.7 0 0
19:06 1009 29.8 838 24.75 -0.5 31 99 -0.7 30.8 0 0
19:07 1009 29.8 839 24.78 -0.5 31 99 -0.7 30.7 0 0
19:08 1009 29.8 839 24.78 -0.5 31.1 99 -0.7 30.8 0 0
19:09 1009 29.8 839 24.78 -0.5 31 99 -0.7 30.8 0 0
19:10 1009 29.8 839 24.78 -0.5 31 99 -0.7 30.7 0 0
19:11 1009 29.8 839 24.78 -0.6 31 99 -0.7 30.7 0 0
19:12 1009 29.8 839 24.78 -0.5 31 99 -0.7 30.7 0 0
19:13 1009 29.8 839 24.78 -0.5 31 99 -0.7 30.8 0 0
19:14 1009 29.8 839 24.78 -0.5 31.1 99 -0.7 30.8 0 0
19:15 1009 29.8 839 24.78 -0.5 31.1 99 -0.7 30.8 0 0
19:16 1010 29.83 839 24.78 -0.5 31.1 99 -0.7 30.8 0 0
19:17 1010 29.83 839 24.78 -0.5 31 99 -0.7 30.7 0 0
19:18 1010 29.83 839 24.78 -0.5 31.1 99 -0.7 30.8 0 0
19:19 1010 29.83 839 24.78 -0.5 31.1 99 -0.7 30.8 0 0
19:20 1010 29.83 839 24.78 -0.5 31.1 99 -0.7 30.8 0 0
19:21 1010 29.83 839 24.78 -0.5 31.1 99 -0.7 30.8 0 0
19:22 1010 29.83 839 24.78 -0.5 31.1 99 -0.7 30.8 0 0
19:23 1010 29.83 839 24.78 -0.5 31.1 99 -0.7 30.8 0 0
19:24 1010 29.83 839 24.78 -0.5 31.1 99 -0.7 30.8 0 0
19:25 1010 29.83 839 24.78 -0.5 31.1 99 -0.7 30.8 0 0
19:26 1010 29.83 839 24.78 -0.5 31.1 99 -0.7 30.8 0 0
19:27 1010 29.83 839 24.78 -0.5 31.1 99 -0.7 30.8 0 0
19:28 1010 29.83 839 24.78 -0.5 31.1 99 -0.7 30.8 0 0
19:29 1010 29.83 839 24.78 -0.5 31.1 99 -0.6 30.8 0 0
19:30 1010 29.83 839 24.78 -0.5 31.1 99 -0.6 30.8 0 0
19:31 1010 29.83 839 24.78 -0.6 31 99 -0.7 30.7 0 0
19:32 1010 29.83 839 24.78 -0.5 31.1 99 -0.6 30.9 0 0
19:33 1010 29.83 839 24.78 -0.5 31.1 99 -0.7 30.8 0 0
19:34 1010 29.83 839 24.78 -0.5 31.1 99 -0.7 30.8 0 0
19:35 1010 29.83 839 24.78 -0.5 31.1 99 -0.6 30.8 0 0
19:36 1010 29.83 839 24.78 -0.5 31.1 99 -0.7 30.8 0 0
19:37 1010 29.83 839 24.78 -0.5 31 99 -0.7 30.8 0 0
19:38 1010 29.83 839 24.78 -0.5 31.1 99 -0.7 30.8 0 0
19:39 1010 29.83 839 24.78 -0.5 31.1 99 -0.7 30.8 0 0
19:40 1010 29.83 839 24.78 -0.5 31.1 99 -0.6 30.9 0 0
19:41 1010 29.83 839 24.78 -0.5 31.1 99 -0.7 30.8 0 0
19:42 1010 29.83 839 24.78 -0.5 31.1 99 -0.7 30.8 0 0
19:43 1010 29.83 839 24.78 -0.5 31.1 99 -0.7 30.8 0 0
19:44 1010 29.83 839 24.78 -0.5 31 99 -0.7 30.7 0 0
19:45 1010 29.83 839 24.78 -0.5 31.1 99 -0.7 30.8 0 0
19:46 1010 29.83 839 24.78 -0.5 31.1 99 -0.6 30.9 0 0
19:47 1010 29.83 839 24.78 -0.5 31.1 99 -0.6 30.8 0 0
19:48 1010 29.83 839 24.78 -0.5 31.1 99 -0.7 30.8 0 0
19:49 1010 29.83 839 24.78 -0.5 31.1 99 -0.6 30.9 0 0
19:50 1010 29.83 839 24.78 -0.5 31.1 99 -0.6 30.9 0 0
19:51 1010 29.83 839 24.78 -0.5 31.1 99 -0.6 30.8 0 0
19:52 1010 29.83 839 24.78 -0.5 31.1 99 -0.7 30.8 0 0
19:53 1010 29.83 839 24.78 -0.5 31.1 99 -0.7 30.8 0 0
19:54 1010 29.83 839 24.78 -0.5 31.1 99 -0.7 30.8 0 0
19:55 1010 29.83 839 24.78 -0.5 31.1 99 -0.7 30.8 0 0
19:56 1010 29.83 839 24.78 -0.5 31.1 99 -0.6 30.8 0 0
19:57 1010 29.83 839 24.78 -0.5 31.1 99 -0.7 30.8 0 0
19:58 1010 29.83 839 24.78 -0.5 31 99 -0.7 30.8 0 0
19:59 1010 29.83 839 24.78 -0.5 31.1 99 -0.7 30.8 0 0
20:00 1010 29.83 839 24.78 -0.5 31 99 -0.7 30.8 0 0
20:01 1010 29.83 839 24.78 -0.5 31 99 -0.7 30.8 0 0
20:02 1010 29.83 839 24.78 -0.5 31.1 99 -0.7 30.8 0 0
20:03 1010 29.83 839 24.78 -0.5 31.1 99 -0.7 30.8 0 0
20:04 1010 29.83 839 24.78 -0.6 31 99 -0.7 30.7 0 0
20:05 1010 29.83 839 24.78 -0.5 31.1 99 -0.7 30.8 0 0
20:06 1010 29.83 839 24.78 -0.5 31 99 -0.7 30.7 0 0
20:07 1010 29.83 839 24.78 -0.5 31 99 -0.7 30.8 0 0
20:08 1010 29.83 839 24.78 -0.6 31 99 -0.7 30.7 0 0
20:09 1010 29.83 839 24.78 -0.6 31 99 -0.7 30.7 0 0
20:10 1010 29.83 839 24.78 -0.6 31 99 -0.7 30.8 0 0
20:11 1010 29.83 839 24.78 -0.6 31 99 -0.7 30.7 0 0
20:12 1010 29.83 839 24.78 -0.6 31 99 -0.7 30.7 0 0
20:13 1010 29.83 839 24.78 -0.5 31 99 -0.7 30.7 0 0
20:14 1010 29.83 839 24.78 -0.6 31 99 -0.7 30.7 0 0
20:15 1010 29.83 839 24.78 -0.6 31 99 -0.7 30.7 0 0
20:16 1010 29.83 839 24.78 -0.6 31 99 -0.7 30.7 0 0
20:17 1010 29.83 839 24.78 -0.6 30.9 99 -0.8 30.6 0 0
20:18 1010 29.83 839 24.78 -0.6 30.9 99 -0.7 30.7 0 0
20:19 1010 29.83 839 24.78 -0.6 30.9 99 -0.7 30.7 0 0
20:20 1010 29.83 839 24.78 -0.6 30.8 99 -0.8 30.6 0 0
20:21 1010 29.83 839 24.78 -0.6 30.9 99 -0.7 30.7 0 0
20:22 1010 29.83 839 24.78 -0.6 30.9 99 -0.8 30.6 0 0
20:23 1010 29.83 839 24.78 -0.6 30.9 99 -0.7 30.7 0 0
20:24 1010 29.83 839 24.78 -0.6 30.9 99 -0.8 30.6 0 0
20:25 1010 29.83 839 24.78 -0.6 30.9 99 -0.8 30.6 0 0
20:26 1010 29.83 839 24.78 -0.6 30.8 99 -0.8 30.6 0 0
20:27 1010 29.83 839 24.78 -0.6 30.8 99 -0.8 30.6 0 0
20:28 1010 29.83 839 24.78 -0.6 30.8 99 -0.8 30.6 0 0
20:29 1010 29.83 839 24.78 -0.7 30.8 99 -0.8 30.6 0 0
20:30 1010 29.83 839 24.78 -0.7 30.8 99 -0.8 30.6 0 0
20:31 1010 29.83 839 24.78 -0.7 30.8 99 -0.8 30.5 0 0
20:32 1010 29.83 839 24.78 -0.7 30.7 99 -0.9 30.4 0 0
20:33 1010 29.83 839 24.78 -0.7 30.7 99 -0.9 30.4 0 0
20:34 1010 29.83 839 24.78 -0.7 30.7 99 -0.9 30.4 0 0
20:35 1010 29.83 839 24.78 -0.7 30.7 99 -0.9 30.4 0 0
20:36 1010 29.83 839 24.78 -0.8 30.6 99 -0.9 30.4 0 0
20:37 1010 29.83 839 24.78 -0.8 30.6 99 -0.9 30.3 0 0
20:38 1010 29.83 839 24.78 -0.8 30.6 99 -0.9 30.3 0 0
20:39 1010 29.83 839 24.78 -0.8 30.5 99 -1 30.3 0 0
20:40 1010 29.83 839 24.78 -0.8 30.5 99 -1 30.2 0 0
20:41 1010 29.83 839 24.78 -0.8 30.5 99 -1 30.2 0 0
20:42 1010 29.83 839 24.78 -0.8 30.5 99 -1 30.3 0 0
20:43 1010 29.83 839 24.78 -0.8 30.5 99 -1 30.3 0 0
20:44 1010 29.83 839 24.78 -0.9 30.4 99 -1 30.2 0 0
20:45 1010 29.83 839 24.78 -0.9 30.4 99 -1 30.1 0 0
20:46 1010 29.83 839 24.78 -0.9 30.4 99 -1 30.2 0 0
20:47 1010 29.83 839 24.78 -0.9 30.3 99 -1.1 30.1 0 0
20:48 1010 29.83 839 24.78 -0.9 30.4 99 -1 30.1 0 0
20:49 1010 29.83 839 24.78 -1 30.3 99 -1.1 30 0 0
20:50 1010 29.83 839 24.78 -1 30.2 99 -1.1 30 0 0
20:51 1010 29.83 839 24.78 -1 30.2 99 -1.1 30 0 0
20:52 1010 29.83 839 24.78 -1 30.2 99 -1.1 30 0 0
20:53 1010 29.83 839 24.78 -1 30.1 99 -1.2 29.9 0 0
20:54 1010 29.83 839 24.78 -1 30.2 99 -1.1 30 0 0
20:55 1010 29.83 839 24.78 -1 30.2 99 -1.2 29.9 0 0
20:56 1010 29.83 839 24.78 -1 30.2 99 -1.1 30 0 0
20:57 1010 29.83 839 24.78 -1 30.2 99 -1.1 29.9 0 0
20:58 1010 29.83 839 24.78 -1.1 30.1 99 -1.2 29.8 0 0
20:59 1010 29.83 839 24.78 -1.1 30.1 99 -1.2 29.9 0 0
21:00 1010 29.83 839 24.78 -1.1 30.1 99 -1.2 29.9 0 0
21:01 1010 29.83 839 24.78 -1.1 30.1 99 -1.2 29.8 0 0
21:02 1010 29.83 839 24.78 -1.1 30 99 -1.2 29.8 0 0
21:03 1010 29.83 839 24.78 -1.1 30 99 -1.2 29.8 0 0
21:04 1010 29.83 839 24.78 -1.1 30.1 99 -1.2 29.8 0 0
21:05 1010 29.83 839 24.78 -1.1 30 99 -1.2 29.8 0 0
21:06 1010 29.83 839 24.78 -1.1 30 99 -1.2 29.8 0 0
21:07 1010 29.83 839 24.78 -1.1 30 99 -1.2 29.8 0 0
21:08 1010 29.83 839 24.78 -1.1 30 99 -1.2 29.8 0 0
21:09 1010 29.83 839 24.78 -1.1 30 99 -1.3 29.7 0 0
21:10 1010 29.83 839 24.78 -1.1 29.9 99 -1.3 29.7 0 0
21:11 1009 29.8 839 24.78 -1.1 30 99 -1.3 29.7 0 0
21:12 1009 29.8 839 24.78 -1.1 29.9 99 -1.3 29.7 0 0
21:13 1009 29.8 839 24.78 -1.1 29.9 99 -1.3 29.7 0 0
21:14 1009 29.8 839 24.78 -1.1 30 99 -1.3 29.7 0 0
21:15 1009 29.8 839 24.78 -1.2 29.9 99 -1.3 29.7 0 0
21:16 1009 29.8 839 24.78 -1.2 29.9 99 -1.3 29.6 0 0
21:17 1010 29.83 839 24.78 -1.2 29.9 99 -1.3 29.6 0 0
21:18 1010 29.83 839 24.78 -1.2 29.8 99 -1.3 29.6 0 0
21:19 1010 29.83 839 24.78 -1.2 29.9 99 -1.3 29.6 0 0
21:20 1010 29.83 839 24.78 -1.2 29.8 99 -1.4 29.5 0 0
21:21 1010 29.83 839 24.78 -1.3 29.7 99 -1.4 29.4 0 0
21:22 1010 29.83 839 24.78 -1.3 29.6 99 -1.5 29.3 0 0
21:23 1010 29.83 839 24.78 -1.4 29.6 99 -1.5 29.3 0 0
21:24 1009 29.8 839 24.78 -1.3 29.6 99 -1.5 29.4 0 0
21:25 1009 29.8 839 24.78 -1.4 29.5 99 -1.5 29.3 0 0
21:26 1010 29.83 839 24.78 -1.4 29.5 99 -1.6 29.2 0 0
21:27 1009 29.8 839 24.78 -1.5 29.3 99 -1.6 29 0 0
21:28 1009 29.8 839 24.78 -1.5 29.2 99 -1.7 28.9 0 0
21:29 1009 29.8 839 24.78 -1.5 29.3 99 -1.7 29 0 0
21:30 1009 29.8 839 24.78 -1.6 29.2 99 -1.7 28.9 0 0
21:31 1009 29.8 839 24.78 -1.6 29.2 99 -1.7 28.9 0 0
21:32 1009 29.8 839 24.78 -1.7 29 99 -1.8 28.7 0 0
21:33 1009 29.8 839 24.78 -1.8 28.8 99 -2 28.5 0 0
21:34 1009 29.8 839 24.78 -1.9 28.6 99 -2.1 28.3 0 0
21:35 1009 29.8 839 24.78 -2 28.5 99 -2.2 28.1 0 0
21:36 1009 29.8 839 24.78 -2 28.3 99 -2.2 28 0 0
21:37 1010 29.83 839 24.78 -2.1 28.2 98 -2.3 27.8 0 0
21:38 1009 29.8 839 24.78 -2.2 28.1 98 -2.4 27.7 0 0
21:39 1009 29.8 839 24.78 -2.3 27.9 98 -2.5 27.5 0 0
21:40 1010 29.83 839 24.78 -2.4 27.6 98 -2.7 27.2 0 0
21:41 1010 29.83 839 24.78 -2.5 27.5 98 -2.8 27 0 0
21:42 1009 29.8 839 24.78 -2.6 27.4 99 -2.8 27 0 0
21:43 1010 29.83 839 24.78 -2.5 27.5 99 -2.7 27.2 0 0
21:44 1010 29.83 839 24.78 -2.5 27.5 99 -2.7 27.2 0 0
21:45 1010 29.83 839 24.78 -2.5 27.5 99 -2.7 27.1 0 0
21:46 1010 29.83 839 24.78 -2.5 27.5 99 -2.7 27.1 0 0
21:47 1010 29.83 839 24.78 -2.5 27.6 99 -2.6 27.3 0 0
21:48 1010 29.83 839 24.78 -2.6 27.3 99 -2.8 26.9 0 0
21:49 1010 29.83 839 24.78 -2.9 26.9 98 -3.1 26.5 0 0
21:50 1010 29.83 839 24.78 -2.8 26.9 98 -3.1 26.5 0 0
21:51 1010 29.83 839 24.78 -2.7 27.2 99 -2.9 26.8 0 0
21:52 1009 29.8 839 24.78 -2.5 27.5 99 -2.7 27.1 0 0
21:53 1009 29.8 839 24.78 -2.5 27.6 99 -2.6 27.2 0 0
21:54 1009 29.8 839 24.78 -2.6 27.2 98 -2.9 26.9 0 0
21:55 1009 29.8 839 24.78 -3 26.6 98 -3.3 26.1 0 0
21:56 1009 29.8 839 24.78 -3.2 26.2 97 -3.6 25.5 0 0
21:57 1009 29.8 839 24.78 -3.3 26 97 -3.7 25.3 0 0
21:58 1009 29.8 839 24.78 -3.5 25.7 97 -3.9 25 0 0
21:59 1009 29.8 839 24.78 -3.8 25.2 96 -4.3 24.3 0 0
22:00 1009 29.8 838 24.75 -4 24.8 96 -4.5 23.9 0 0
22:01 1009 29.8 838 24.75 -4.2 24.5 96 -4.7 23.5 0 0
22:02 1009 29.8 839 24.78 -4.3 24.2 96 -4.9 23.3 0 0
22:03 1009 29.8 839 24.78 -4.4 24 96 -4.9 23.1 0 0
22:04 1009 29.8 839 24.78 -4.4 24 97 -4.9 23.2 0 0
22:05 1009 29.8 839 24.78 -4.5 23.8 97 -5 23 0 0
22:06 1009 29.8 839 24.78 -4.6 23.6 96 -5.1 22.7 0 0
22:07 1009 29.8 839 24.78 -4.8 23.3 96 -5.4 22.3 0 0
22:08 1009 29.8 839 24.78 -4.9 23.2 97 -5.3 22.4 0 0
22:09 1009 29.8 839 24.78 -4.8 23.4 97 -5.1 22.8 0 0
22:10 1009 29.8 839 24.78 -4.7 23.5 97 -5.1 22.8 0 0
22:11 1009 29.8 839 24.78 -4.8 23.4 97 -5.2 22.6 0 0
22:12 1009 29.8 839 24.78 -4.8 23.4 97 -5.2 22.7 0 0
22:13 1009 29.8 839 24.78 -4.7 23.5 97 -5.1 22.8 0 0
22:14 1009 29.8 839 24.78 -4.7 23.5 97 -5.1 22.8 0 0
22:15 1009 29.8 839 24.78 -4.6 23.8 98 -4.9 23.2 0 0
22:16 1009 29.8 839 24.78 -4.5 24 98 -4.8 23.4 0 0
22:17 1009 29.8 839 24.78 -4.5 23.8 97 -4.9 23.2 0 0
22:18 1009 29.8 839 24.78 -4.6 23.6 97 -5.1 22.8 0 0
22:19 1009 29.8 839 24.78 -4.8 23.4 96 -5.3 22.5 0 0
22:20 1009 29.8 839 24.78 -4.8 23.3 96 -5.4 22.3 0 0
22:21 1009 29.8 839 24.78 -5 23 96 -5.6 22 0 0
22:22 1009 29.8 839 24.78 -5.1 22.7 96 -5.7 21.7 0 0
22:23 1009 29.8 838 24.75 -5.2 22.6 95 -5.9 21.4 0 0
22:24 1009 29.8 838 24.75 -5.4 22.3 95 -6 21.2 0 0
22:25 1009 29.8 838 24.75 -5.6 22 95 -6.3 20.7 0 0
22:26 1009 29.8 838 24.75 -5.6 21.9 96 -6.2 20.9 0 0
22:27 1009 29.8 838 24.75 -5.5 22 96 -6 21.1 0 0
22:28 1009 29.8 838 24.75 -5.5 22.1 97 -6 21.3 0 0
22:29 1009 29.8 838 24.75 -5.3 22.5 97 -5.6 21.9 0 0
22:30 1009 29.8 838 24.75 -5.1 22.9 97 -5.4 22.2 0 0
22:31 1009 29.8 838 24.75 -5 23 97 -5.4 22.3 0 0
22:32 1009 29.8 838 24.75 -5.1 22.8 96 -5.6 21.9 0 0
22:33 1009 29.8 838 24.75 -5.3 22.5 95 -5.9 21.4 0 0
22:34 1009 29.8 838 24.75 -5.4 22.4 95 -6 21.2 0 0
22:35 1009 29.8 838 24.75 -5.4 22.2 95 -6.1 21.1 0 0
22:36 1009 29.8 838 24.75 -5.5 22.1 95 -6.1 20.9 0 0
22:37 1009 29.8 838 24.75 -5.6 22 95 -6.2 20.8 0 0
22:38 1009 29.8 838 24.75 -5.6 21.9 95 -6.2 20.8 0 0
22:39 1009 29.8 838 24.75 -5.7 21.8 96 -6.2 20.8 0 0
22:40 1009 29.8 838 24.75 -5.7 21.7 96 -6.3 20.7 0 0
22:41 1009 29.8 838 24.75 -5.8 21.5 95 -6.5 20.2 0 0
22:42 1009 29.8 838 24.75 -6 21.2 95 -6.7 19.9 0 0
22:43 1009 29.8 838 24.75 -6.1 21 95 -6.8 19.8 0 0
22:44 1009 29.8 838 24.75 -6.1 21 96 -6.7 19.9 0 0
22:45 1009 29.8 838 24.75 -6 21.2 96 -6.6 20.1 0 0
22:46 1009 29.8 838 24.75 -6 21.2 96 -6.6 20.2 0 0
22:47 1009 29.8 838 24.75 -6 21.2 96 -6.6 20.1 0 0
22:48 1009 29.8 838 24.75 -6.1 21 95 -6.7 19.9 0 0
22:49 1009 29.8 838 24.75 -6.2 20.9 95 -6.9 19.6 0 0
22:50 1009 29.8 838 24.75 -6.2 20.8 95 -6.8 19.7 0 0
22:51 1009 29.8 838 24.75 -6.2 20.8 96 -6.8 19.8 0 0
22:52 1009 29.8 838 24.75 -6.2 20.9 96 -6.7 19.9 0 0
22:53 1009 29.8 838 24.75 -6.2 20.8 96 -6.8 19.7 0 0
22:54 1009 29.8 838 24.75 -6.1 21 97 -6.6 20.1 0 0
22:55 1009 29.8 838 24.75 -5.9 21.4 97 -6.3 20.7 0 0
22:56 1009 29.8 838 24.75 -5.7 21.7 97 -6.1 21 0 0
22:57 1009 29.8 838 24.75 -5.5 22.1 98 -5.8 21.6 0 0
22:58 1009 29.8 838 24.75 -5.3 22.4 98 -5.7 21.8 0 0
22:59 1009 29.8 839 24.78 -5.2 22.7 98 -5.5 22.2 0 0
23:00 1009 29.8 839 24.78 -5.1 22.8 97 -5.4 22.2 0 0
23:01 1009 29.8 839 24.78 -4.8 23.3 98 -5.1 22.9 0 0
23:02 1010 29.83 839 24.78 -4.6 23.7 98 -4.9 23.2 0 0
23:03 1010 29.83 839 24.78 -4.6 23.6 98 -5 23.1 0 0
23:04 1010 29.83 839 24.78 -4.6 23.7 97 -5 23 0 0
23:05 1010 29.83 839 24.78 -4.6 23.7 97 -5.1 22.9 0 0
23:06 1010 29.83 839 24.78 -4.7 23.5 96 -5.2 22.6 0 0
23:07 1010 29.83 839 24.78 -4.7 23.5 97 -5.2 22.7 0 0
23:08 1010 29.83 839 24.78 -4.7 23.6 97 -5.1 22.8 0 0
23:09 1010 29.83 839 24.78 -4.6 23.7 97 -5.1 22.9 0 0
23:10 1010 29.83 839 24.78 -4.5 23.9 97 -4.9 23.2 0 0
23:11 1010 29.83 839 24.78 -4.4 24.1 97 -4.8 23.4 0 0
23:12 1010 29.83 839 24.78 -4.2 24.5 98 -4.5 23.9 0 0
23:13 1010 29.83 839 24.78 -3.9 25 98 -4.2 24.5 0 0
23:14 1010 29.83 839 24.78 -3.8 25.2 98 -4.1 24.7 0 0
23:15 1010 29.83 839 24.78 -3.7 25.4 98 -4 24.8 0 0
23:16 1010 29.83 839 24.78 -3.6 25.5 97 -4 24.9 0 0
23:17 1010 29.83 839 24.78 -3.6 25.6 97 -3.9 25 0 0
23:18 1010 29.83 839 24.78 -3.5 25.7 97 -3.9 25 0 0
23:19 1010 29.83 839 24.78 -3.4 25.8 97 -3.8 25.2 0 0
23:20 1010 29.83 839 24.78 -3.3 26.1 97 -3.6 25.4 0 0
23:21 1010 29.83 839 24.78 -3.3 26.1 97 -3.6 25.5 0 0
23:22 1010 29.83 839 24.78 -3.2 26.2 97 -3.6 25.5 0 0
23:23 1010 29.83 839 24.78 -3.2 26.2 97 -3.6 25.5 0 0
23:24 1010 29.83 839 24.78 -3.2 26.2 97 -3.6 25.5 0 0
23:25 1010 29.83 839 24.78 -3.3 26.1 96 -3.8 25.2 0 0
23:26 1010 29.83 839 24.78 -3.4 25.8 96 -4 24.8 0 0
23:27 1010 29.83 839 24.78 -3.5 25.7 96 -4 24.7 0 0
23:28 1010 29.83 839 24.78 -3.6 25.6 96 -4.1 24.7 0 0
23:29 1010 29.83 839 24.78 -3.6 25.4 96 -4.2 24.5 0 0
23:30 1010 29.83 839 24.78 -3.6 25.5 97 -4.1 24.6 0 0
23:31 1010 29.83 839 24.78 -3.6 25.5 97 -4 24.8 0 0
23:32 1010 29.83 839 24.78 -3.4 25.8 97 -3.8 25.1 0 0
23:33 1010 29.83 839 24.78 -3.3 26 97 -3.7 25.3 0 0
23:34 1010 29.83 839 24.78 -3.3 26.1 97 -3.7 25.4 0 0
23:35 1010 29.83 839 24.78 -3.1 26.3 97 -3.6 25.6 0 0
23:36 1010 29.83 839 24.78 -3.1 26.4 97 -3.5 25.6 0 0
23:37 1010 29.83 839 24.78 -3.1 26.5 96 -3.6 25.5 0 0
23:38 1010 29.83 839 24.78 -3.1 26.4 96 -3.7 25.4 0 0
23:39 1010 29.83 839 24.78 -3.1 26.4 96 -3.7 25.3 0 0
23:40 1010 29.83 839 24.78 -3.3 26.1 95 -4 24.9 0 0
23:41 1010 29.83 839 24.78 -3.4 25.8 95 -4.1 24.6 0 0
23:42 1010 29.83 839 24.78 -3.5 25.7 96 -4.1 24.6 0 0
23:43 1010 29.83 839 24.78 -3.6 25.5 96 -4.2 24.5 0 0
23:44 1010 29.83 839 24.78 -3.7 25.4 95 -4.3 24.3 0 0
23:45 1010 29.83 839 24.78 -3.8 25.2 96 -4.4 24.1 0 0
23:46 1010 29.83 839 24.78 -3.9 25 96 -4.4 24 0 0
23:47 1010 29.83 839 24.78 -3.9 25.1 96 -4.4 24.1 0 0
23:48 1010 29.83 839 24.78 -3.8 25.1 97 -4.3 24.3 0 0
23:49 1010 29.83 839 24.78 -3.7 25.3 97 -4.2 24.5 0 0
23:50 1010 29.83 839 24.78 -3.7 25.4 97 -4.1 24.7 0 0
23:51 1010 29.83 839 24.78 -3.6 25.6 97 -3.9 24.9 0 0
23:52 1010 29.83 839 24.78 -3.5 25.7 97 -3.9 25 0 0
23:53 1010 29.83 839 24.78 -3.5 25.7 97 -3.9 25 0 0
23:54 1010 29.83 839 24.78 -3.5 25.8 97 -3.9 25 0 0
23:55 1010 29.83 839 24.78 -3.4 25.9 97 -3.8 25.2 0 0
23:56 1010 29.83 839 24.78 -3.3 26 97 -3.7 25.3 0 0
23:57 1010 29.83 839 24.78 -3.3 26 97 -3.8 25.1 0 0
23:58 1010 29.83 839 24.78 -3.3 26 97 -3.8 25.1 0 0
23:59 1010 29.83 839 24.78 -3.4 25.9 96 -3.9 25 0 0
24:00 1009 29.8 839 24.78 -3.4 26 96 -3.9 25.1 0 0